Data for 09/12/2009

Time Sea-Level Adjusted Pressure Absolute Pressure Temperature Relative Humidity Dew Point Precipitation   
(mb) (inHg) (mb) (inHg) (C) (F) (%) (C) (F) (mm) (in)
00:01 1028 30.36 857 25.31 13.1 55.6 41 0.3 32.6 13.48 0.531
00:02 1028 30.36 857 25.31 13.1 55.6 42 0.4 32.7 13.46 0.53
00:03 1028 30.36 857 25.31 13.1 55.5 42 0.4 32.8 13.4 0.528
00:04 1028 30.36 857 25.31 13.1 55.5 42 0.4 32.8 13.4 0.528
00:05 1028 30.36 857 25.31 13.1 55.5 42 0.4 32.7 13.4 0.528
00:06 1028 30.36 857 25.31 13 55.5 42 0.4 32.7 13.4 0.528
00:07 1028 30.36 857 25.31 13 55.5 42 0.5 32.9 13.42 0.528
00:08 1028 30.36 857 25.31 13 55.3 42 0.4 32.8 13.32 0.524
00:09 1028 30.36 857 25.31 13 55.4 42 0.5 32.9 13.39 0.527
00:10 1028 30.36 857 25.31 13 55.4 42 0.5 32.9 13.35 0.526
00:11 1028 30.36 857 25.31 13 55.4 42 0.5 32.9 13.36 0.526
00:12 1028 30.36 857 25.31 13 55.3 43 0.6 33.1 13.33 0.525
00:13 1028 30.36 857 25.31 12.9 55.2 43 0.6 33 13.25 0.522
00:14 1028 30.36 857 25.31 12.8 55.1 43 0.6 33.1 13.21 0.52
00:15 1028 30.36 857 25.31 12.7 54.9 43 0.6 33 13.09 0.515
00:16 1028 30.36 857 25.31 12.7 54.9 43 0.6 33.1 13.09 0.515
00:17 1028 30.36 857 25.31 12.7 54.9 43 0.6 33 13.07 0.515
00:18 1028 30.36 857 25.31 12.7 54.8 43 0.6 33 13.06 0.514
00:19 1028 30.36 857 25.31 12.7 54.8 44 0.7 33.2 13.05 0.514
00:20 1028 30.36 857 25.31 12.6 54.7 44 0.6 33.1 12.95 0.51
00:21 1028 30.36 857 25.31 12.6 54.7 44 0.7 33.2 12.98 0.511
00:22 1028 30.36 857 25.31 12.6 54.6 44 0.6 33.1 12.92 0.509
00:23 1028 30.36 857 25.31 12.5 54.6 44 0.7 33.2 12.91 0.508
00:24 1028 30.36 857 25.31 12.5 54.4 44 0.6 33.1 12.87 0.507
00:25 1028 30.36 857 25.31 12.5 54.5 45 0.8 33.5 12.84 0.506
00:26 1028 30.36 857 25.31 12.5 54.4 45 0.8 33.5 12.8 0.504
00:27 1028 30.36 857 25.31 12.4 54.3 45 0.7 33.3 12.78 0.503
00:28 1028 30.36 857 25.31 12.4 54.2 45 0.8 33.5 12.74 0.502
00:29 1028 30.36 857 25.31 12.3 54.1 45 0.8 33.4 12.71 0.5
00:30 1028 30.36 857 25.31 12.3 54.2 45 0.8 33.4 12.63 0.497
00:31 1028 30.36 857 25.31 12.3 54.1 45 0.8 33.5 12.62 0.497
00:32 1028 30.36 857 25.31 12.2 54 45 0.8 33.4 12.59 0.496
00:33 1028 30.36 857 25.31 12.2 54 45 0.7 33.3 12.58 0.495
00:34 1028 30.36 857 25.31 12.2 54 45 0.8 33.4 12.57 0.495
00:35 1028 30.36 857 25.31 12.2 53.9 45 0.8 33.4 12.52 0.493
00:36 1028 30.36 857 25.31 12.1 53.9 46 0.8 33.5 12.5 0.492
00:37 1028 30.36 857 25.31 12.1 53.8 46 0.9 33.6 12.48 0.491
00:38 1028 30.36 857 25.31 12.1 53.7 46 0.8 33.5 12.48 0.491
00:39 1028 30.36 857 25.31 12.1 53.7 46 0.8 33.4 12.45 0.49
00:40 1028 30.36 857 25.31 12.1 53.8 46 0.8 33.5 12.45 0.49
00:41 1028 30.36 857 25.31 12.1 53.8 46 0.8 33.5 12.48 0.491
00:42 1028 30.36 857 25.31 12.2 53.9 46 0.9 33.6 12.49 0.492
00:43 1028 30.36 857 25.31 12.1 53.9 46 0.9 33.7 12.48 0.491
00:44 1028 30.36 857 25.31 12.1 53.7 46 0.9 33.5 12.45 0.49
00:45 1028 30.36 857 25.31 12.1 53.9 46 0.8 33.5 12.51 0.493
00:46 1028 30.36 857 25.31 12.2 53.9 46 0.9 33.6 12.55 0.494
00:47 1028 30.36 857 25.31 12.2 53.9 46 0.9 33.6 12.54 0.494
00:48 1028 30.36 857 25.31 12.1 53.8 46 0.9 33.7 12.5 0.492
00:49 1028 30.36 857 25.31 12.1 53.8 46 0.9 33.7 12.46 0.491
00:50 1028 30.36 857 25.31 12.1 53.7 47 1 33.8 12.4 0.488
00:51 1028 30.36 857 25.31 12 53.6 47 1 33.9 12.37 0.487
00:52 1028 30.36 857 25.31 12 53.5 47 1 33.9 12.33 0.485
00:53 1028 30.36 857 25.31 11.9 53.5 47 1 33.9 12.31 0.485
00:54 1028 30.36 857 25.31 11.9 53.5 47 1 33.8 12.31 0.485
00:55 1028 30.36 857 25.31 11.9 53.5 47 1 33.9 12.29 0.484
00:56 1028 30.36 857 25.31 11.9 53.4 48 1.1 34.1 12.24 0.482
00:57 1028 30.36 857 25.31 11.8 53.3 47 1.1 33.9 12.16 0.479
00:58 1028 30.36 857 25.31 11.8 53.3 48 1.1 33.9 12.22 0.481
00:59 1028 30.36 857 25.31 11.8 53.3 47 1.1 34 12.23 0.481
01:00 1028 30.36 857 25.31 11.9 53.3 48 1.2 34.1 12.23 0.481
01:01 1028 30.36 857 25.31 11.8 53.2 48 1.2 34.2 12.11 0.477
01:02 1028 30.36 857 25.31 11.7 53 49 1.2 34.2 12.03 0.474
01:03 1028 30.36 857 25.31 11.6 52.8 48 1.1 34 11.99 0.472
01:04 1028 30.36 857 25.31 11.6 52.9 49 1.3 34.3 11.97 0.471
01:05 1028 30.36 857 25.31 11.5 52.7 49 1.2 34.1 11.88 0.468
01:06 1028 30.36 857 25.31 11.5 52.7 49 1.3 34.3 11.87 0.467
01:07 1028 30.36 857 25.31 11.5 52.6 49 1.2 34.1 11.87 0.467
01:08 1028 30.36 857 25.31 11.5 52.8 49 1.3 34.3 11.88 0.468
01:09 1028 30.36 857 25.31 11.5 52.7 49 1.3 34.3 11.84 0.466
01:10 1028 30.36 857 25.31 11.5 52.6 49 1.3 34.3 11.83 0.466
01:11 1028 30.36 857 25.31 11.4 52.6 49 1.2 34.1 11.81 0.465
01:12 1028 30.36 857 25.31 11.5 52.6 49 1.2 34.2 11.82 0.465
01:13 1028 30.36 857 25.31 11.5 52.6 49 1.2 34.2 11.79 0.464
01:14 1028 30.36 857 25.31 11.5 52.6 49 1.2 34.2 11.82 0.465
01:15 1028 30.36 857 25.31 11.5 52.7 49 1.1 34.1 11.85 0.467
01:16 1028 30.36 857 25.31 11.6 52.8 49 1.2 34.2 11.92 0.469
01:17 1028 30.36 857 25.31 11.6 52.8 49 1.2 34.1 11.94 0.47
01:18 1028 30.36 857 25.31 11.6 52.8 49 1.2 34.2 11.92 0.469
01:19 1028 30.36 857 25.31 11.6 52.9 49 1.3 34.3 11.94 0.47
01:20 1028 30.36 857 25.31 11.6 52.8 49 1.3 34.3 11.97 0.471
01:21 1028 30.36 857 25.31 11.6 52.8 49 1.2 34.2 11.93 0.47
01:22 1028 30.36 857 25.31 11.6 52.8 49 1.2 34.2 11.96 0.471
01:23 1028 30.36 857 25.31 11.6 52.9 49 1.3 34.4 11.92 0.469
01:24 1028 30.36 857 25.31 11.5 52.8 49 1.3 34.3 11.9 0.469
01:25 1028 30.36 857 25.31 11.5 52.8 49 1.2 34.2 11.91 0.469
01:26 1028 30.36 857 25.31 11.5 52.8 49 1.3 34.4 11.93 0.47
01:27 1028 30.36 857 25.31 11.5 52.7 49 1.3 34.3 11.86 0.467
01:28 1028 30.36 857 25.31 11.5 52.7 50 1.4 34.6 11.84 0.466
01:29 1028 30.36 857 25.31 11.5 52.6 49 1.3 34.3 11.82 0.465
01:30 1028 30.36 857 25.31 11.5 52.7 50 1.4 34.5 11.86 0.467
01:31 1028 30.36 857 25.31 11.4 52.6 50 1.4 34.6 11.78 0.464
01:32 1028 30.36 857 25.31 11.4 52.4 50 1.4 34.4 11.75 0.463
01:33 1028 30.36 857 25.31 11.4 52.4 50 1.3 34.3 11.74 0.462
01:34 1028 30.36 857 25.31 11.4 52.5 50 1.4 34.5 11.73 0.462
01:35 1028 30.36 857 25.31 11.3 52.4 50 1.3 34.3 11.69 0.46
01:36 1027 30.33 857 25.31 11.4 52.4 50 1.4 34.5 11.73 0.462
01:37 1027 30.33 857 25.31 11.3 52.4 50 1.4 34.6 11.68 0.46
01:38 1027 30.33 857 25.31 11.3 52.3 50 1.4 34.6 11.59 0.456
01:39 1027 30.33 857 25.31 11.2 52.2 50 1.3 34.3 11.62 0.457
01:40 1027 30.33 857 25.31 11.3 52.3 50 1.4 34.5 11.68 0.46
01:41 1027 30.33 857 25.31 11.3 52.3 50 1.3 34.4 11.65 0.459
01:42 1027 30.33 857 25.31 11.2 52.2 50 1.3 34.4 11.63 0.458
01:43 1027 30.33 857 25.31 11.3 52.3 50 1.3 34.4 11.65 0.459
01:44 1027 30.33 857 25.31 11.3 52.4 50 1.4 34.5 11.71 0.461
01:45 1027 30.33 857 25.31 11.3 52.3 50 1.3 34.3 11.67 0.459
01:46 1027 30.33 857 25.31 11.3 52.4 50 1.3 34.4 11.73 0.462
01:47 1027 30.33 857 25.31 11.4 52.4 50 1.4 34.5 11.77 0.463
01:48 1027 30.33 857 25.31 11.4 52.5 50 1.3 34.4 11.72 0.461
01:49 1027 30.33 857 25.31 11.4 52.5 50 1.3 34.4 11.78 0.464
01:50 1027 30.33 857 25.31 11.4 52.5 50 1.4 34.6 11.8 0.465
01:51 1027 30.33 857 25.31 11.4 52.5 50 1.4 34.5 11.74 0.462
01:52 1027 30.33 857 25.31 11.4 52.4 50 1.3 34.3 11.76 0.463
01:53 1027 30.33 857 25.31 11.4 52.6 50 1.4 34.6 11.78 0.464
01:54 1027 30.33 857 25.31 11.5 52.7 50 1.4 34.5 11.81 0.465
01:55 1027 30.33 857 25.31 11.4 52.6 50 1.4 34.5 11.77 0.463
01:56 1027 30.33 857 25.31 11.4 52.5 50 1.4 34.5 11.77 0.463
01:57 1027 30.33 857 25.31 11.4 52.6 50 1.5 34.6 11.78 0.464
01:58 1027 30.33 857 25.31 11.4 52.5 50 1.4 34.4 11.77 0.463
01:59 1027 30.33 857 25.31 11.4 52.6 50 1.4 34.5 11.8 0.465
02:00 1027 30.33 857 25.31 11.4 52.6 50 1.4 34.5 11.81 0.465
02:01 1027 30.33 857 25.31 11.5 52.6 50 1.3 34.4 11.84 0.466
02:02 1027 30.33 857 25.31 11.5 52.7 49 1.3 34.4 11.88 0.468
02:03 1027 30.33 857 25.31 11.5 52.7 50 1.5 34.6 11.86 0.467
02:04 1027 30.33 857 25.31 11.5 52.6 50 1.4 34.5 11.81 0.465
02:05 1027 30.33 857 25.31 11.4 52.6 50 1.4 34.5 11.8 0.465
02:06 1027 30.33 857 25.31 11.4 52.6 49 1.3 34.3 11.84 0.466
02:07 1027 30.33 856 25.28 11.5 52.7 49 1.4 34.5 11.92 0.469
02:08 1027 30.33 856 25.28 11.5 52.8 50 1.4 34.5 11.89 0.468
02:09 1027 30.33 857 25.31 11.5 52.6 50 1.4 34.5 11.8 0.465
02:10 1027 30.33 857 25.31 11.4 52.5 50 1.3 34.3 11.76 0.463
02:11 1027 30.33 857 25.31 11.4 52.6 50 1.4 34.5 11.81 0.465
02:12 1027 30.33 857 25.31 11.4 52.5 50 1.4 34.5 11.74 0.462
02:13 1027 30.33 857 25.31 11.4 52.4 50 1.5 34.6 11.75 0.463
02:14 1027 30.33 856 25.28 11.3 52.3 50 1.4 34.5 11.65 0.459
02:15 1027 30.33 856 25.28 11.3 52.3 50 1.4 34.5 11.57 0.456
02:16 1027 30.33 856 25.28 11.1 52 51 1.4 34.6 11.48 0.452
02:17 1027 30.33 856 25.28 11.1 51.9 51 1.4 34.5 11.48 0.452
02:18 1027 30.33 856 25.28 11 51.9 51 1.4 34.5 11.42 0.45
02:19 1027 30.33 856 25.28 11 51.9 51 1.3 34.3 11.41 0.449
02:20 1027 30.33 856 25.28 11 51.9 51 1.3 34.4 11.46 0.451
02:21 1027 30.33 856 25.28 11.1 51.9 51 1.5 34.6 11.44 0.45
02:22 1027 30.33 856 25.28 11 51.8 51 1.3 34.4 11.38 0.448
02:23 1027 30.33 856 25.28 11 51.9 51 1.4 34.6 11.38 0.448
02:24 1027 30.33 856 25.28 11 51.7 51 1.4 34.5 11.35 0.447
02:25 1027 30.33 856 25.28 11 51.8 52 1.5 34.6 11.33 0.446
02:26 1027 30.33 856 25.28 11 51.7 51 1.3 34.4 11.34 0.446
02:27 1027 30.33 856 25.28 11 51.8 51 1.4 34.4 11.39 0.448
02:28 1027 30.33 856 25.28 11 51.8 52 1.4 34.6 11.39 0.448
02:29 1027 30.33 857 25.31 11 51.7 51 1.4 34.5 11.31 0.445
02:30 1027 30.33 856 25.28 10.9 51.6 52 1.4 34.6 11.27 0.444
02:31 1027 30.33 857 25.31 10.9 51.5 52 1.5 34.8 11.24 0.443
02:32 1027 30.33 856 25.28 10.8 51.4 52 1.4 34.5 11.14 0.439
02:33 1027 30.33 856 25.28 10.8 51.5 52 1.4 34.5 11.22 0.442
02:34 1027 30.33 856 25.28 10.9 51.6 52 1.4 34.5 11.25 0.443
02:35 1027 30.33 856 25.28 10.9 51.6 52 1.4 34.5 11.27 0.444
02:36 1027 30.33 856 25.28 10.9 51.6 52 1.4 34.5 11.28 0.444
02:37 1027 30.33 856 25.28 10.9 51.6 52 1.4 34.5 11.24 0.443
02:38 1027 30.33 856 25.28 10.8 51.5 52 1.3 34.4 11.24 0.443
02:39 1027 30.33 856 25.28 10.9 51.5 52 1.4 34.5 11.2 0.441
02:40 1027 30.33 856 25.28 10.8 51.5 52 1.5 34.7 11.22 0.442
02:41 1027 30.33 856 25.28 10.8 51.5 52 1.4 34.6 11.22 0.442
02:42 1027 30.33 856 25.28 10.8 51.4 52 1.5 34.6 11.16 0.439
02:43 1027 30.33 856 25.28 10.7 51.3 53 1.6 34.8 11.07 0.436
02:44 1027 30.33 856 25.28 10.7 51.2 52 1.4 34.5 11.03 0.434
02:45 1027 30.33 856 25.28 10.7 51.2 52 1.4 34.5 11.07 0.436
02:46 1027 30.33 856 25.28 10.7 51.3 52 1.3 34.4 11.15 0.439
02:47 1027 30.33 856 25.28 10.8 51.5 51 1.3 34.3 11.24 0.443
02:48 1027 30.33 856 25.28 10.9 51.7 52 1.4 34.6 11.29 0.444
02:49 1027 30.33 856 25.28 10.9 51.6 52 1.5 34.7 11.25 0.443
02:50 1027 30.33 856 25.28 10.8 51.5 52 1.5 34.6 11.16 0.439
02:51 1027 30.33 856 25.28 10.8 51.4 53 1.5 34.7 11.1 0.437
02:52 1027 30.33 856 25.28 10.7 51.3 53 1.5 34.6 11.06 0.435
02:53 1027 30.33 856 25.28 10.7 51.3 52 1.4 34.4 11.09 0.437
02:54 1027 30.33 856 25.28 10.7 51.3 52 1.4 34.6 11.09 0.437
02:55 1027 30.33 856 25.28 10.7 51.2 53 1.5 34.7 11.01 0.433
02:56 1027 30.33 856 25.28 10.6 51.1 53 1.5 34.6 10.9 0.429
02:57 1027 30.33 856 25.28 10.5 51 53 1.5 34.7 10.9 0.429
02:58 1027 30.33 856 25.28 10.5 50.9 53 1.5 34.6 10.88 0.428
02:59 1027 30.33 856 25.28 10.5 51 53 1.4 34.5 10.89 0.429
03:00 1027 30.33 856 25.28 10.5 51 53 1.4 34.6 10.92 0.43
03:01 1027 30.33 856 25.28 10.5 51 53 1.4 34.6 10.92 0.43
03:02 1027 30.33 856 25.28 10.5 50.9 53 1.5 34.7 10.92 0.43
03:03 1027 30.33 856 25.28 10.5 50.8 54 1.5 34.7 10.81 0.426
03:04 1027 30.33 856 25.28 10.4 50.8 53 1.4 34.6 10.83 0.426
03:05 1027 30.33 856 25.28 10.5 50.8 54 1.5 34.7 10.85 0.427
03:06 1027 30.33 856 25.28 10.4 50.8 53 1.4 34.5 10.81 0.426
03:07 1027 30.33 856 25.28 10.5 50.8 53 1.5 34.7 10.85 0.427
03:08 1027 30.33 856 25.28 10.5 50.8 53 1.4 34.6 10.83 0.426
03:09 1027 30.33 856 25.28 10.5 50.8 53 1.4 34.5 10.85 0.427
03:10 1027 30.33 856 25.28 10.5 50.9 53 1.4 34.5 10.9 0.429
03:11 1027 30.33 856 25.28 10.5 51 53 1.4 34.5 10.9 0.429
03:12 1027 30.33 856 25.28 10.5 50.9 53 1.5 34.6 10.84 0.427
03:13 1027 30.33 856 25.28 10.4 50.7 54 1.6 34.8 10.77 0.424
03:14 1027 30.33 856 25.28 10.3 50.6 54 1.5 34.7 10.67 0.42
03:15 1027 30.33 856 25.28 10.3 50.5 54 1.5 34.6 10.63 0.419
03:16 1027 30.33 856 25.28 10.2 50.4 55 1.5 34.7 10.6 0.417
03:17 1027 30.33 856 25.28 10.2 50.4 54 1.4 34.5 10.61 0.418
03:18 1027 30.33 856 25.28 10.3 50.5 54 1.4 34.5 10.63 0.419
03:19 1027 30.33 856 25.28 10.3 50.5 54 1.5 34.7 10.67 0.42
03:20 1027 30.33 856 25.28 10.2 50.3 55 1.5 34.8 10.5 0.413
03:21 1027 30.33 856 25.28 10.1 50.2 55 1.4 34.6 10.46 0.412
03:22 1027 30.33 856 25.28 10.1 50.2 55 1.5 34.7 10.47 0.412
03:23 1027 30.33 856 25.28 10.1 50.1 55 1.4 34.6 10.46 0.412
03:24 1027 30.33 856 25.28 10 50.1 55 1.3 34.4 10.42 0.41
03:25 1027 30.33 856 25.28 10.1 50.1 54 1.3 34.3 10.52 0.414
03:26 1027 30.33 856 25.28 10.2 50.4 54 1.4 34.5 10.63 0.419
03:27 1027 30.33 856 25.28 10.2 50.4 54 1.4 34.5 10.6 0.417
03:28 1027 30.33 856 25.28 10.2 50.3 54 1.4 34.5 10.6 0.417
03:29 1027 30.33 856 25.28 10.2 50.4 54 1.4 34.5 10.62 0.418
03:30 1027 30.33 856 25.28 10.2 50.4 54 1.5 34.7 10.6 0.417
03:31 1027 30.33 856 25.28 10.2 50.4 55 1.5 34.7 10.57 0.416
03:32 1027 30.33 856 25.28 10.1 50.2 55 1.5 34.7 10.51 0.414
03:33 1027 30.33 856 25.28 10.1 50.1 55 1.4 34.6 10.46 0.412
03:34 1027 30.33 856 25.28 10.1 50.1 55 1.4 34.5 10.45 0.411
03:35 1027 30.33 856 25.28 10.1 50.1 55 1.5 34.7 10.46 0.412
03:36 1027 30.33 856 25.28 10 50 55 1.5 34.7 10.37 0.408
03:37 1027 30.33 856 25.28 10 49.9 56 1.5 34.7 10.27 0.404
03:38 1027 30.33 856 25.28 9.9 49.8 55 1.4 34.5 10.25 0.404
03:39 1027 30.33 856 25.28 10 49.9 55 1.3 34.3 10.34 0.407
03:40 1027 30.33 856 25.28 10.1 50.2 54 1.4 34.5 10.49 0.413
03:41 1027 30.33 856 25.28 10.2 50.3 54 1.4 34.5 10.51 0.414
03:42 1027 30.33 856 25.28 10.1 50.2 54 1.4 34.5 10.5 0.413
03:43 1027 30.33 856 25.28 10.2 50.3 55 1.5 34.7 10.5 0.413
03:44 1027 30.33 856 25.28 10.1 50.1 55 1.5 34.6 10.44 0.411
03:45 1027 30.33 856 25.28 10 50.1 55 1.4 34.6 10.39 0.409
03:46 1027 30.33 856 25.28 10 50 55 1.5 34.7 10.39 0.409
03:47 1027 30.33 856 25.28 10 50.1 55 1.4 34.6 10.38 0.409
03:48 1027 30.33 856 25.28 10 50 55 1.4 34.6 10.38 0.409
03:49 1027 30.33 856 25.28 10 50 55 1.4 34.5 10.36 0.408
03:50 1027 30.33 856 25.28 10.1 50.1 55 1.4 34.5 10.46 0.412
03:51 1027 30.33 856 25.28 10 50 55 1.4 34.6 10.42 0.41
03:52 1027 30.33 856 25.28 10 50.1 55 1.5 34.8 10.39 0.409
03:53 1027 30.33 856 25.28 10 49.9 55 1.4 34.6 10.31 0.406
03:54 1027 30.33 856 25.28 10 50 55 1.4 34.5 10.38 0.409
03:55 1027 30.33 856 25.28 10 50 55 1.4 34.5 10.42 0.41
03:56 1027 30.33 856 25.28 10 50 55 1.5 34.6 10.44 0.411
03:57 1027 30.33 856 25.28 10 49.9 55 1.4 34.5 10.36 0.408
03:58 1027 30.33 856 25.28 10 49.9 55 1.4 34.5 10.3 0.406
03:59 1027 30.33 856 25.28 9.9 49.9 55 1.4 34.6 10.33 0.407
04:00 1027 30.33 856 25.28 9.9 49.9 55 1.4 34.6 10.32 0.406
04:01 1027 30.33 856 25.28 9.9 49.8 56 1.5 34.7 10.27 0.404
04:02 1027 30.33 856 25.28 9.8 49.7 56 1.5 34.7 10.15 0.4
04:03 1027 30.33 856 25.28 9.8 49.6 56 1.4 34.5 10.2 0.402
04:04 1027 30.33 856 25.28 9.9 49.8 55 1.3 34.4 10.25 0.404
04:05 1027 30.33 856 25.28 10 50 55 1.4 34.5 10.37 0.408
04:06 1027 30.33 856 25.28 10 50 55 1.4 34.5 10.4 0.409
04:07 1027 30.33 856 25.28 10 50 55 1.5 34.7 10.37 0.408
04:08 1027 30.33 856 25.28 10 49.9 56 1.5 34.7 10.28 0.405
04:09 1027 30.33 856 25.28 10 50 55 1.4 34.4 10.37 0.408
04:10 1027 30.33 856 25.28 10 50.1 55 1.4 34.5 10.39 0.409
04:11 1027 30.33 856 25.28 10 50 55 1.3 34.4 10.39 0.409
04:12 1027 30.33 856 25.28 10.1 50.1 55 1.4 34.5 10.42 0.41
04:13 1027 30.33 856 25.28 10 50 55 1.5 34.6 10.38 0.409
04:14 1027 30.33 856 25.28 10 49.9 55 1.4 34.6 10.32 0.406
04:15 1027 30.33 856 25.28 10 49.9 55 1.4 34.5 10.34 0.407
04:16 1027 30.33 856 25.28 10.1 50.1 55 1.4 34.5 10.44 0.411
04:17 1027 30.33 856 25.28 10.1 50.1 55 1.4 34.5 10.44 0.411
04:18 1027 30.33 856 25.28 10.1 50.1 55 1.4 34.6 10.46 0.412
04:19 1027 30.33 856 25.28 10 50.1 55 1.4 34.5 10.44 0.411
04:20 1027 30.33 856 25.28 10 50.1 55 1.4 34.6 10.4 0.409
04:21 1027 30.33 856 25.28 10 50 55 1.3 34.4 10.39 0.409
04:22 1027 30.33 856 25.28 10.1 50.1 55 1.4 34.4 10.41 0.41
04:23 1027 30.33 856 25.28 10.1 50.1 55 1.5 34.6 10.4 0.409
04:24 1027 30.33 856 25.28 10 50 55 1.4 34.5 10.35 0.407
04:25 1027 30.33 856 25.28 10 50 55 1.5 34.7 10.38 0.409
04:26 1027 30.33 856 25.28 10 49.9 55 1.4 34.5 10.29 0.405
04:27 1027 30.33 856 25.28 10 49.9 55 1.4 34.6 10.35 0.407
04:28 1027 30.33 856 25.28 10 50 55 1.4 34.5 10.36 0.408
04:29 1027 30.33 856 25.28 10 50 55 1.4 34.6 10.39 0.409
04:30 1027 30.33 856 25.28 10 50 55 1.5 34.6 10.33 0.407
04:31 1027 30.33 856 25.28 9.9 49.9 55 1.5 34.6 10.31 0.406
04:32 1027 30.33 856 25.28 9.9 49.9 55 1.4 34.5 10.31 0.406
04:33 1027 30.33 856 25.28 10 50 55 1.5 34.7 10.3 0.406
04:34 1027 30.33 856 25.28 9.9 49.9 55 1.4 34.5 10.31 0.406
04:35 1027 30.33 856 25.28 9.9 49.8 55 1.4 34.5 10.3 0.406
04:36 1027 30.33 856 25.28 10 49.9 55 1.4 34.6 10.33 0.407
04:37 1027 30.33 856 25.28 9.9 49.9 55 1.4 34.5 10.33 0.407
04:38 1027 30.33 856 25.28 9.9 49.9 55 1.4 34.6 10.31 0.406
04:39 1027 30.33 856 25.28 9.9 49.9 55 1.5 34.6 10.28 0.405
04:40 1027 30.33 856 25.28 9.9 49.9 55 1.3 34.4 10.31 0.406
04:41 1027 30.33 856 25.28 10 50 55 1.4 34.5 10.38 0.409
04:42 1027 30.33 856 25.28 10.1 50.1 55 1.4 34.5 10.43 0.411
04:43 1027 30.33 856 25.28 10.1 50.2 54 1.3 34.4 10.49 0.413
04:44 1027 30.33 856 25.28 10.2 50.3 54 1.4 34.5 10.55 0.415
04:45 1027 30.33 856 25.28 10.2 50.3 54 1.4 34.5 10.55 0.415
04:46 1027 30.33 856 25.28 10.2 50.3 54 1.3 34.4 10.58 0.417
04:47 1027 30.33 856 25.28 10.2 50.4 54 1.4 34.5 10.6 0.417
04:48 1027 30.33 856 25.28 10.2 50.4 54 1.3 34.4 10.64 0.419
04:49 1027 30.33 856 25.28 10.3 50.5 54 1.4 34.4 10.69 0.421
04:50 1027 30.33 856 25.28 10.3 50.6 53 1.3 34.4 10.72 0.422
04:51 1027 30.33 856 25.28 10.4 50.6 54 1.4 34.6 10.73 0.422
04:52 1027 30.33 856 25.28 10.3 50.6 54 1.4 34.5 10.69 0.421
04:53 1027 30.33 856 25.28 10.3 50.6 53 1.3 34.3 10.68 0.42
04:54 1027 30.33 856 25.28 10.4 50.7 54 1.4 34.5 10.74 0.423
04:55 1027 30.33 856 25.28 10.3 50.5 54 1.4 34.6 10.66 0.42
04:56 1027 30.33 856 25.28 10.3 50.5 54 1.4 34.5 10.63 0.419
04:57 1027 30.33 856 25.28 10.3 50.5 54 1.5 34.6 10.62 0.418
04:58 1027 30.33 856 25.28 10.2 50.3 55 1.5 34.7 10.53 0.415
04:59 1026 30.3 856 25.28 10.1 50.2 54 1.4 34.5 10.49 0.413
05:00 1027 30.33 856 25.28 10.1 50.2 55 1.4 34.5 10.49 0.413
05:01 1027 30.33 856 25.28 10.1 50.2 55 1.4 34.5 10.45 0.411
05:02 1027 30.33 856 25.28 10.1 50.1 55 1.4 34.5 10.44 0.411
05:03 1027 30.33 856 25.28 10.1 50.1 55 1.4 34.5 10.45 0.411
05:04 1027 30.33 856 25.28 10 50 55 1.5 34.7 10.36 0.408
05:05 1027 30.33 856 25.28 9.9 49.9 55 1.4 34.6 10.32 0.406
05:06 1027 30.33 856 25.28 9.9 49.8 55 1.3 34.4 10.27 0.404
05:07 1027 30.33 856 25.28 9.9 49.7 56 1.4 34.6 10.2 0.402
05:08 1027 30.33 856 25.28 9.8 49.6 56 1.5 34.6 10.19 0.401
05:09 1027 30.33 856 25.28 9.8 49.6 56 1.5 34.6 10.08 0.397
05:10 1027 30.33 856 25.28 9.7 49.5 56 1.5 34.7 10.05 0.396
05:11 1027 30.33 856 25.28 9.7 49.4 56 1.3 34.4 10.08 0.397
05:12 1027 30.33 856 25.28 9.7 49.5 56 1.5 34.6 10.11 0.398
05:13 1027 30.33 856 25.28 9.7 49.5 56 1.4 34.5 10.08 0.397
05:14 1027 30.33 856 25.28 9.8 49.7 55 1.4 34.4 10.19 0.401
05:15 1027 30.33 856 25.28 9.8 49.6 56 1.4 34.6 10.16 0.4
05:16 1027 30.33 856 25.28 9.8 49.6 56 1.5 34.7 10.11 0.398
05:17 1027 30.33 856 25.28 9.7 49.4 56 1.4 34.5 10.07 0.396
05:18 1027 30.33 856 25.28 9.7 49.4 56 1.5 34.7 10.07 0.396
05:19 1027 30.33 856 25.28 9.6 49.3 57 1.5 34.7 9.99 0.393
05:20 1027 30.33 856 25.28 9.6 49.2 57 1.5 34.7 9.97 0.393
05:21 1027 30.33 856 25.28 9.6 49.2 57 1.5 34.7 9.91 0.39
05:22 1027 30.33 856 25.28 9.5 49.2 57 1.4 34.5 9.89 0.389
05:23 1027 30.33 856 25.28 9.6 49.3 56 1.4 34.6 10.02 0.394
05:24 1027 30.33 856 25.28 9.6 49.3 57 1.5 34.6 9.95 0.392
05:25 1027 30.33 856 25.28 9.5 49.2 57 1.5 34.6 9.88 0.389
05:26 1026 30.3 856 25.28 9.5 49.2 57 1.4 34.5 9.9 0.39
05:27 1026 30.3 856 25.28 9.6 49.2 57 1.4 34.5 9.92 0.391
05:28 1026 30.3 856 25.28 9.6 49.2 57 1.4 34.6 9.95 0.392
05:29 1026 30.3 856 25.28 9.6 49.3 57 1.5 34.7 9.92 0.391
05:30 1026 30.3 856 25.28 9.5 49.2 57 1.4 34.5 9.93 0.391
05:31 1026 30.3 856 25.28 9.5 49.1 56 1.3 34.4 9.96 0.392
05:32 1026 30.3 856 25.28 9.6 49.3 56 1.4 34.6 9.98 0.393
05:33 1026 30.3 856 25.28 9.6 49.3 57 1.5 34.6 10 0.394
05:34 1026 30.3 856 25.28 9.6 49.2 57 1.4 34.5 9.99 0.393
05:35 1026 30.3 856 25.28 9.6 49.2 57 1.4 34.6 9.95 0.392
05:36 1026 30.3 856 25.28 9.6 49.3 57 1.5 34.6 9.98 0.393
05:37 1026 30.3 856 25.28 9.5 49.2 57 1.4 34.5 9.93 0.391
05:38 1026 30.3 856 25.28 9.6 49.2 57 1.5 34.6 9.93 0.391
05:39 1026 30.3 856 25.28 9.5 49.1 57 1.4 34.6 9.9 0.39
05:40 1026 30.3 856 25.28 9.5 49 57 1.4 34.5 9.82 0.387
05:41 1026 30.3 856 25.28 9.5 49 57 1.4 34.6 9.8 0.386
05:42 1026 30.3 856 25.28 9.4 49 57 1.4 34.4 9.79 0.385
05:43 1026 30.3 856 25.28 9.5 49.1 57 1.3 34.4 9.9 0.39
05:44 1026 30.3 856 25.28 9.5 49.2 57 1.4 34.5 9.92 0.391
05:45 1026 30.3 856 25.28 9.6 49.2 56 1.4 34.5 9.95 0.392
05:46 1026 30.3 856 25.28 9.6 49.3 56 1.3 34.4 10.03 0.395
05:47 1026 30.3 856 25.28 9.7 49.4 56 1.4 34.6 10.11 0.398
05:48 1026 30.3 856 25.28 9.7 49.4 56 1.4 34.6 10.04 0.395
05:49 1026 30.3 856 25.28 9.6 49.3 57 1.5 34.7 9.99 0.393
05:50 1026 30.3 856 25.28 9.5 49.2 57 1.4 34.6 9.9 0.39
05:51 1026 30.3 856 25.28 9.5 49.1 57 1.5 34.7 9.85 0.388
05:52 1026 30.3 856 25.28 9.4 49 57 1.4 34.5 9.76 0.384
05:53 1026 30.3 856 25.28 9.5 49 57 1.4 34.5 9.83 0.387
05:54 1026 30.3 856 25.28 9.5 49 57 1.3 34.4 9.86 0.388
05:55 1026 30.3 856 25.28 9.5 49.1 57 1.5 34.7 9.87 0.389
05:56 1026 30.3 856 25.28 9.4 49 57 1.5 34.6 9.84 0.387
05:57 1026 30.3 856 25.28 9.5 49 57 1.5 34.7 9.83 0.387
05:58 1026 30.3 856 25.28 9.4 48.9 58 1.5 34.7 9.78 0.385
05:59 1026 30.3 856 25.28 9.4 49 57 1.4 34.5 9.84 0.387
06:00 1026 30.3 856 25.28 9.5 49.1 57 1.4 34.5 9.92 0.391
06:01 1026 30.3 856 25.28 9.6 49.2 57 1.4 34.6 10.02 0.394
06:02 1026 30.3 856 25.28 9.6 49.2 57 1.5 34.8 9.91 0.39
06:03 1026 30.3 856 25.28 9.4 49 57 1.5 34.6 9.79 0.385
06:04 1026 30.3 856 25.28 9.4 49 58 1.5 34.7 9.78 0.385
06:05 1026 30.3 856 25.28 9.4 49 57 1.4 34.6 9.84 0.387
06:06 1026 30.3 856 25.28 9.5 49.1 57 1.4 34.5 9.92 0.391
06:07 1026 30.3 856 25.28 9.5 49.1 57 1.4 34.6 9.92 0.391
06:08 1026 30.3 856 25.28 9.5 49.1 57 1.4 34.5 9.95 0.392
06:09 1026 30.3 856 25.28 9.5 49.2 57 1.4 34.5 9.92 0.391
06:10 1026 30.3 856 25.28 9.5 49.2 57 1.5 34.6 9.91 0.39
06:11 1027 30.33 856 25.28 9.5 49.1 57 1.4 34.5 9.89 0.389
06:12 1026 30.3 856 25.28 9.5 49.1 57 1.5 34.6 9.91 0.39
06:13 1026 30.3 856 25.28 9.5 49.2 57 1.4 34.6 9.92 0.391
06:14 1026 30.3 856 25.28 9.5 49.1 57 1.5 34.7 9.88 0.389
06:15 1026 30.3 856 25.28 9.4 48.9 58 1.5 34.7 9.71 0.382
06:16 1026 30.3 856 25.28 9.4 48.8 57 1.4 34.6 9.71 0.382
06:17 1026 30.3 856 25.28 9.4 48.9 57 1.4 34.6 9.78 0.385
06:18 1026 30.3 856 25.28 9.4 49 58 1.6 34.8 9.79 0.385
06:19 1026 30.3 856 25.28 9.4 49 57 1.4 34.5 9.79 0.385
06:20 1026 30.3 856 25.28 9.5 49.1 57 1.4 34.6 9.86 0.388
06:21 1026 30.3 856 25.28 9.5 49.1 57 1.4 34.6 9.86 0.388
06:22 1026 30.3 856 25.28 9.5 49 57 1.5 34.6 9.84 0.387
06:23 1027 30.33 856 25.28 9.4 48.8 58 1.5 34.7 9.74 0.383
06:24 1027 30.33 856 25.28 9.3 48.7 58 1.4 34.6 9.65 0.38
06:25 1026 30.3 856 25.28 9.3 48.7 58 1.4 34.5 9.65 0.38
06:26 1026 30.3 856 25.28 9.3 48.7 57 1.3 34.4 9.73 0.383
06:27 1026 30.3 856 25.28 9.3 48.8 58 1.5 34.7 9.69 0.381
06:28 1026 30.3 856 25.28 9.3 48.7 58 1.4 34.5 9.7 0.382
06:29 1026 30.3 856 25.28 9.4 48.8 57 1.4 34.5 9.75 0.384
06:30 1026 30.3 856 25.28 9.4 48.9 58 1.5 34.7 9.78 0.385
06:31 1026 30.3 856 25.28 9.4 48.8 58 1.5 34.7 9.66 0.38
06:32 1026 30.3 856 25.28 9.3 48.7 58 1.4 34.6 9.64 0.38
06:33 1026 30.3 856 25.28 9.3 48.7 58 1.5 34.8 9.64 0.38
06:34 1026 30.3 856 25.28 9.2 48.5 58 1.4 34.6 9.57 0.377
06:35 1026 30.3 856 25.28 9.2 48.6 58 1.4 34.6 9.61 0.378
06:36 1026 30.3 856 25.28 9.2 48.6 58 1.5 34.7 9.59 0.378
06:37 1026 30.3 855 25.25 9.1 48.5 58 1.5 34.6 9.56 0.376
06:38 1026 30.3 855 25.25 9.1 48.5 59 1.5 34.8 9.53 0.375
06:39 1026 30.3 855 25.25 9.1 48.4 59 1.5 34.7 9.45 0.372
06:40 1026 30.3 855 25.25 9.1 48.3 59 1.5 34.8 9.43 0.371
06:41 1026 30.3 855 25.25 9 48.1 59 1.4 34.5 9.35 0.368
06:42 1026 30.3 855 25.25 9.1 48.3 58 1.4 34.5 9.46 0.372
06:43 1026 30.3 855 25.25 9.1 48.5 58 1.4 34.6 9.49 0.374
06:44 1026 30.3 855 25.25 9.2 48.5 58 1.5 34.6 9.56 0.376
06:45 1026 30.3 855 25.25 9.2 48.5 58 1.4 34.6 9.57 0.377
06:46 1026 30.3 855 25.25 9.2 48.6 58 1.4 34.6 9.63 0.379
06:47 1026 30.3 855 25.25 9.2 48.6 59 1.6 34.9 9.53 0.375
06:48 1026 30.3 855 25.25 9.1 48.4 59 1.5 34.7 9.48 0.373
06:49 1026 30.3 855 25.25 9.1 48.4 59 1.5 34.8 9.46 0.372
06:50 1026 30.3 855 25.25 9 48.2 59 1.5 34.7 9.39 0.37
06:51 1026 30.3 855 25.25 9 48.1 59 1.4 34.6 9.36 0.369
06:52 1026 30.3 855 25.25 8.9 48.1 60 1.6 34.8 9.31 0.367
06:53 1026 30.3 855 25.25 8.9 48 60 1.5 34.7 9.25 0.364
06:54 1026 30.3 855 25.25 8.9 47.9 60 1.5 34.7 9.25 0.364
06:55 1026 30.3 855 25.25 8.8 47.9 60 1.5 34.8 9.21 0.363
06:56 1026 30.3 855 25.25 8.8 47.9 60 1.5 34.8 9.16 0.361
06:57 1026 30.3 855 25.25 8.8 47.9 60 1.5 34.7 9.2 0.362
06:58 1026 30.3 855 25.25 8.8 47.9 60 1.5 34.6 9.2 0.362
06:59 1026 30.3 855 25.25 8.8 47.9 60 1.5 34.6 9.26 0.365
07:00 1026 30.3 855 25.25 8.9 47.9 60 1.5 34.8 9.18 0.361
07:01 1026 30.3 855 25.25 8.8 47.8 60 1.5 34.7 9.09 0.358
07:02 1026 30.3 855 25.25 8.7 47.6 61 1.6 34.8 9.07 0.357
07:03 1026 30.3 855 25.25 8.7 47.7 60 1.4 34.6 9.08 0.357
07:04 1026 30.3 855 25.25 8.8 47.8 60 1.5 34.6 9.21 0.363
07:05 1026 30.3 855 25.25 8.9 47.9 60 1.6 34.8 9.3 0.366
07:06 1026 30.3 855 25.25 8.8 47.9 61 1.7 35 9.17 0.361
07:07 1026 30.3 855 25.25 8.8 47.8 60 1.5 34.6 9.19 0.362
07:08 1026 30.3 855 25.25 8.9 47.9 60 1.6 34.9 9.18 0.361
07:09 1026 30.3 855 25.25 8.8 47.9 60 1.5 34.7 9.16 0.361
07:10 1026 30.3 855 25.25 8.8 47.9 60 1.5 34.7 9.19 0.362
07:11 1026 30.3 855 25.25 8.9 47.9 60 1.5 34.6 9.25 0.364
07:12 1026 30.3 855 25.25 8.9 48 60 1.6 35 9.25 0.364
07:13 1026 30.3 855 25.25 8.9 48 60 1.6 34.9 9.24 0.364
07:14 1026 30.3 855 25.25 8.9 48 60 1.6 35 9.22 0.363
07:15 1026 30.3 855 25.25 8.9 48.1 60 1.5 34.8 9.31 0.367
07:16 1026 30.3 855 25.25 9 48.2 60 1.7 35.1 9.38 0.369
07:17 1026 30.3 855 25.25 9 48.1 60 1.6 34.8 9.38 0.369
07:18 1026 30.3 855 25.25 9 48.3 60 1.6 35 9.43 0.371
07:19 1026 30.3 855 25.25 9.1 48.4 59 1.6 34.9 9.5 0.374
07:20 1026 30.3 855 25.25 9.2 48.5 58 1.5 34.6 9.6 0.378
07:21 1026 30.3 855 25.25 9.3 48.7 59 1.7 35 9.66 0.38
07:22 1026 30.3 855 25.25 9.3 48.7 58 1.6 34.8 9.68 0.381
07:23 1026 30.3 855 25.25 9.3 48.7 59 1.6 34.9 9.68 0.381
07:24 1026 30.3 855 25.25 9.3 48.7 59 1.7 35 9.68 0.381
07:25 1026 30.3 855 25.25 9.3 48.7 59 1.7 35 9.65 0.38
07:26 1026 30.3 855 25.25 9.3 48.8 58 1.5 34.7 9.72 0.383
07:27 1026 30.3 855 25.25 9.5 49 58 1.6 34.9 9.86 0.388
07:28 1026 30.3 855 25.25 9.5 49.1 57 1.6 34.8 9.9 0.39
07:29 1026 30.3 855 25.25 9.6 49.2 57 1.6 34.9 9.97 0.393
07:30 1026 30.3 855 25.25 9.6 49.3 57 1.6 34.9 9.98 0.393
07:31 1026 30.3 855 25.25 9.6 49.4 57 1.6 34.9 10 0.394
07:32 1026 30.3 855 25.25 9.7 49.4 57 1.6 34.9 10.07 0.396
07:33 1026 30.3 855 25.25 9.7 49.4 57 1.7 35.1 10.08 0.397
07:34 1026 30.3 855 25.25 9.7 49.5 57 1.6 34.8 10.11 0.398
07:35 1026 30.3 855 25.25 9.8 49.6 57 1.7 35.1 10.17 0.4
07:36 1026 30.3 855 25.25 9.8 49.7 57 1.8 35.2 10.19 0.401
07:37 1026 30.3 855 25.25 9.8 49.7 57 1.8 35.3 10.16 0.4
07:38 1026 30.3 855 25.25 9.8 49.7 57 1.7 35 10.15 0.4
07:39 1026 30.3 855 25.25 9.8 49.7 57 1.7 35.1 10.21 0.402
07:40 1026 30.3 855 25.25 9.9 49.7 56 1.6 34.9 10.24 0.403
07:41 1026 30.3 855 25.25 9.9 49.9 56 1.5 34.7 10.29 0.405
07:42 1026 30.3 855 25.25 10 50 56 1.7 35 10.38 0.409
07:43 1026 30.3 855 25.25 10 50 57 1.9 35.3 10.4 0.409
07:44 1026 30.3 855 25.25 10 50 56 1.6 34.9 10.4 0.409
07:45 1026 30.3 855 25.25 10.1 50.2 56 1.7 35.1 10.46 0.412
07:46 1026 30.3 855 25.25 10.1 50.3 55 1.6 34.9 10.5 0.413
07:47 1026 30.3 855 25.25 10.2 50.3 56 1.7 35.1 10.56 0.416
07:48 1026 30.3 855 25.25 10.2 50.4 56 1.8 35.3 10.58 0.417
07:49 1026 30.3 855 25.25 10.3 50.5 55 1.7 35 10.66 0.42
07:50 1026 30.3 855 25.25 10.3 50.6 55 1.7 35 10.73 0.422
07:51 1026 30.3 855 25.25 10.4 50.6 55 1.9 35.4 10.74 0.423
07:52 1026 30.3 855 25.25 10.4 50.7 55 1.9 35.4 10.72 0.422
07:53 1026 30.3 855 25.25 10.4 50.7 54 1.6 34.9 10.77 0.424
07:54 1026 30.3 855 25.25 10.5 50.8 55 1.8 35.3 10.81 0.426
07:55 1026 30.3 855 25.25 10.5 50.9 54 1.6 34.9 10.84 0.427
07:56 1026 30.3 855 25.25 10.6 51 54 1.8 35.2 10.93 0.43
07:57 1026 30.3 855 25.25 10.6 51 54 1.8 35.2 10.91 0.43
07:58 1026 30.3 855 25.25 10.6 51.1 54 1.8 35.2 10.96 0.431
07:59 1026 30.3 855 25.25 10.6 51.1 54 1.9 35.4 10.96 0.431
08:00 1026 30.3 855 25.25 10.6 51.1 54 1.9 35.3 10.96 0.431
08:01 1026 30.3 855 25.25 10.6 51.1 54 1.7 35.1 11 0.433
08:02 1026 30.3 855 25.25 10.6 51.2 54 1.8 35.3 10.99 0.433
08:03 1026 30.3 855 25.25 10.6 51.1 54 1.8 35.3 11 0.433
08:04 1026 30.3 855 25.25 10.7 51.2 55 2.1 35.8 11.02 0.434
08:05 1026 30.3 855 25.25 10.7 51.2 54 1.8 35.3 11.04 0.435
08:06 1026 30.3 855 25.25 10.7 51.2 54 1.7 35.1 11.07 0.436
08:07 1026 30.3 855 25.25 10.7 51.3 54 1.9 35.3 11.06 0.435
08:08 1026 30.3 855 25.25 10.7 51.3 53 1.6 34.9 11.08 0.436
08:09 1026 30.3 855 25.25 10.8 51.4 54 1.9 35.4 11.1 0.437
08:10 1026 30.3 855 25.25 10.7 51.3 53 1.7 35 11.1 0.437
08:11 1026 30.3 855 25.25 10.8 51.4 53 1.7 35.1 11.11 0.437
08:12 1026 30.3 855 25.25 10.7 51.3 54 1.8 35.3 11.09 0.437
08:13 1026 30.3 855 25.25 10.7 51.3 54 1.8 35.2 11.12 0.438
08:14 1026 30.3 855 25.25 10.8 51.4 54 1.9 35.4 11.13 0.438
08:15 1026 30.3 855 25.25 10.8 51.4 53 1.7 35.1 11.16 0.439
08:16 1026 30.3 855 25.25 10.8 51.5 53 1.8 35.2 11.18 0.44
08:17 1026 30.3 855 25.25 10.8 51.5 54 2 35.6 11.2 0.441
08:18 1026 30.3 855 25.25 10.9 51.6 54 1.9 35.5 11.24 0.443
08:19 1026 30.3 855 25.25 10.9 51.6 53 1.9 35.4 11.25 0.443
08:20 1026 30.3 855 25.25 10.9 51.7 53 1.8 35.2 11.25 0.443
08:21 1026 30.3 855 25.25 10.9 51.7 53 1.9 35.3 11.28 0.444
08:22 1026 30.3 855 25.25 11 51.8 54 2.2 35.9 11.35 0.447
08:23 1026 30.3 855 25.25 11 51.8 53 1.9 35.4 11.36 0.447
08:24 1026 30.3 855 25.25 11 51.8 53 2 35.5 11.38 0.448
08:25 1026 30.3 855 25.25 11.1 51.9 53 1.9 35.4 11.4 0.449
08:26 1026 30.3 855 25.25 11.1 51.9 53 1.9 35.5 11.45 0.451
08:27 1026 30.3 855 25.25 11.1 52 53 1.9 35.4 11.42 0.45
08:28 1026 30.3 855 25.25 11.1 52 52 1.7 35.1 11.44 0.45
08:29 1026 30.3 855 25.25 11.1 52 54 2.1 35.8 11.47 0.452
08:30 1026 30.3 855 25.25 11.1 52 53 2 35.6 11.46 0.451
08:31 1026 30.3 855 25.25 11.1 52.1 53 2 35.5 11.52 0.454
08:32 1026 30.3 855 25.25 11.2 52.1 54 2.2 36 11.57 0.456
08:33 1026 30.3 855 25.25 11.3 52.3 52 1.9 35.4 11.66 0.459
08:34 1026 30.3 855 25.25 11.3 52.3 53 2 35.7 11.67 0.459
08:35 1026 30.3 855 25.25 11.3 52.4 53 2.1 35.8 11.7 0.461
08:36 1026 30.3 855 25.25 11.3 52.4 52 1.9 35.4 11.71 0.461
08:37 1026 30.3 855 25.25 11.3 52.4 53 2 35.7 11.7 0.461
08:38 1026 30.3 855 25.25 11.3 52.4 52 1.8 35.2 11.67 0.459
08:39 1026 30.3 855 25.25 11.3 52.3 52 1.8 35.2 11.7 0.461
08:40 1026 30.3 855 25.25 11.3 52.3 52 1.9 35.5 11.69 0.46
08:41 1026 30.3 855 25.25 11.3 52.3 52 1.8 35.3 11.67 0.459
08:42 1026 30.3 855 25.25 11.3 52.4 52 2 35.6 11.73 0.462
08:43 1026 30.3 855 25.25 11.4 52.4 52 1.8 35.3 11.78 0.464
08:44 1026 30.3 855 25.25 11.4 52.5 52 2 35.6 11.77 0.463
08:45 1026 30.3 855 25.25 11.4 52.6 53 2.2 36 11.82 0.465
08:46 1026 30.3 855 25.25 11.4 52.6 52 2 35.6 11.82 0.465
08:47 1026 30.3 855 25.25 11.5 52.6 51 1.9 35.3 11.85 0.467
08:48 1026 30.3 855 25.25 11.5 52.7 52 2 35.5 11.88 0.468
08:49 1026 30.3 855 25.25 11.5 52.7 52 2 35.6 11.91 0.469
08:50 1026 30.3 855 25.25 11.6 52.8 52 2.2 36 11.92 0.469
08:51 1026 30.3 855 25.25 11.6 52.9 52 2 35.7 11.98 0.472
08:52 1026 30.3 855 25.25 11.6 52.8 51 1.7 35.1 12 0.472
08:53 1025 30.27 855 25.25 11.6 52.8 51 1.9 35.4 11.97 0.471
08:54 1025 30.27 855 25.25 11.6 52.8 51 1.8 35.3 12 0.472
08:55 1026 30.3 855 25.25 11.6 52.9 51 1.9 35.5 12.03 0.474
08:56 1026 30.3 855 25.25 11.7 53 51 2 35.5 12.06 0.475
08:57 1026 30.3 855 25.25 11.7 53 51 2.1 35.8 12.04 0.474
08:58 1026 30.3 855 25.25 11.7 53 51 2 35.7 12.09 0.476
08:59 1026 30.3 855 25.25 11.8 53.2 52 2.3 36.2 12.1 0.476
09:00 1026 30.3 855 25.25 11.8 53.2 51 2 35.6 12.19 0.48
09:01 1026 30.3 855 25.25 11.8 53.3 50 1.8 35.2 12.16 0.479
09:02 1026 30.3 855 25.25 11.8 53.2 51 1.9 35.5 12.16 0.479
09:03 1026 30.3 855 25.25 11.8 53.3 51 1.9 35.5 12.19 0.48
09:04 1026 30.3 855 25.25 11.8 53.3 52 2.3 36.1 12.22 0.481
09:05 1026 30.3 855 25.25 11.9 53.3 51 2 35.7 12.27 0.483
09:06 1026 30.3 855 25.25 11.9 53.5 51 2.3 36.1 12.3 0.484
09:07 1026 30.3 855 25.25 12 53.5 51 2.2 35.9 12.37 0.487
09:08 1025 30.27 855 25.25 12 53.6 50 2 35.5 12.39 0.488
09:09 1025 30.27 855 25.25 12 53.6 51 2.1 35.8 12.37 0.487
09:10 1025 30.27 855 25.25 12 53.7 49 1.7 35.1 12.41 0.489
09:11 1026 30.3 855 25.25 12.1 53.7 50 2.1 35.8 12.43 0.489
09:12 1025 30.27 855 25.25 12.1 53.8 52 2.6 36.7 12.47 0.491
09:13 1025 30.27 855 25.25 12.2 54 49 2 35.7 12.6 0.496
09:14 1025 30.27 855 25.25 12.3 54.1 49 2 35.6 12.62 0.497
09:15 1026 30.3 855 25.25 12.2 54 50 2.2 35.9 12.6 0.496
09:16 1025 30.27 855 25.25 12.2 54 49 1.9 35.5 12.59 0.496
09:17 1025 30.27 855 25.25 12.2 54 49 1.8 35.2 12.59 0.496
09:18 1026 30.3 855 25.25 12.3 54.1 50 2.3 36.2 12.61 0.496
09:19 1026 30.3 855 25.25 12.4 54.2 50 2.2 35.9 12.69 0.5
09:20 1026 30.3 855 25.25 12.4 54.3 49 2.1 35.7 12.71 0.5
09:21 1025 30.27 855 25.25 12.4 54.3 49 2.2 35.9 12.75 0.502
09:22 1025 30.27 855 25.25 12.4 54.4 49 2.2 35.9 12.78 0.503
09:23 1025 30.27 855 25.25 12.4 54.3 50 2.3 36.1 12.74 0.502
09:24 1025 30.27 855 25.25 12.4 54.3 49 2 35.7 12.71 0.5
09:25 1025 30.27 855 25.25 12.3 54.1 50 2.1 35.9 12.67 0.499
09:26 1025 30.27 855 25.25 12.4 54.2 49 2.1 35.8 12.7 0.5
09:27 1025 30.27 855 25.25 12.4 54.3 49 2.1 35.9 12.77 0.503
09:28 1025 30.27 855 25.25 12.5 54.4 50 2.5 36.4 12.79 0.504
09:29 1025 30.27 855 25.25 12.5 54.4 49 2 35.7 12.84 0.506
09:30 1025 30.27 855 25.25 12.6 54.6 49 2.2 35.9 12.88 0.507
09:31 1025 30.27 855 25.25 12.6 54.7 49 2.2 36 12.93 0.509
09:32 1025 30.27 855 25.25 12.6 54.7 50 2.6 36.7 13.01 0.512
09:33 1025 30.27 855 25.25 12.7 54.9 50 2.6 36.6 13.08 0.515
09:34 1025 30.27 855 25.25 12.9 55.1 47 1.9 35.5 13.18 0.519
09:35 1025 30.27 855 25.25 12.9 55.3 48 2.2 35.9 13.22 0.52
09:36 1025 30.27 855 25.25 12.9 55.2 48 2.2 35.9 13.22 0.52
09:37 1025 30.27 855 25.25 12.9 55.3 49 2.4 36.3 13.25 0.522
09:38 1025 30.27 855 25.25 13 55.4 48 2.3 36.1 13.29 0.523
09:39 1025 30.27 855 25.25 13 55.5 48 2.4 36.4 13.4 0.528
09:40 1025 30.27 855 25.25 13.2 55.7 47 2.3 36.1 13.5 0.531
09:41 1025 30.27 855 25.25 13.2 55.7 47 2.1 35.8 13.48 0.531
09:42 1025 30.27 855 25.25 13.1 55.6 46 1.9 35.5 13.4 0.528
09:43 1025 30.27 855 25.25 13 55.4 47 1.9 35.4 13.28 0.523
09:44 1025 30.27 854 25.22 13 55.3 47 1.9 35.3 13.23 0.521
09:45 1025 30.27 854 25.22 12.9 55.2 47 1.9 35.4 13.17 0.519
09:46 1025 30.27 854 25.22 13 55.3 47 1.8 35.3 13.25 0.522
09:47 1025 30.27 854 25.22 13 55.3 47 2.1 35.8 13.22 0.52
09:48 1025 30.27 854 25.22 13 55.4 49 2.7 36.8 13.29 0.523
09:49 1025 30.27 854 25.22 13.1 55.6 47 2.1 35.8 13.48 0.531
09:50 1025 30.27 854 25.22 13.2 55.8 47 2.3 36.2 13.52 0.532
09:51 1025 30.27 854 25.22 13.3 55.9 46 2.1 35.8 13.56 0.534
09:52 1025 30.27 854 25.22 13.3 55.9 49 2.7 36.9 13.54 0.533
09:53 1025 30.27 854 25.22 13.3 56 47 2.3 36.1 13.62 0.536
09:54 1025 30.27 854 25.22 13.4 56.1 46 2 35.7 13.67 0.538
09:55 1025 30.27 854 25.22 13.3 56 47 2.3 36.2 13.61 0.536
09:56 1025 30.27 854 25.22 13.3 56 47 2.3 36.1 13.64 0.537
09:57 1025 30.27 854 25.22 13.3 56 47 2.4 36.3 13.61 0.536
09:58 1025 30.27 854 25.22 13.3 55.9 46 2.1 35.9 13.56 0.534
09:59 1025 30.27 854 25.22 13.3 55.9 48 2.6 36.6 13.56 0.534
10:00 1025 30.27 854 25.22 13.3 55.9 46 2 35.5 13.56 0.534
10:01 1025 30.27 854 25.22 13.2 55.8 47 2.2 36 13.43 0.529
10:02 1025 30.27 854 25.22 13.2 55.7 46 2 35.7 13.46 0.53
10:03 1025 30.27 854 25.22 13.2 55.8 46 2 35.7 13.52 0.532
10:04 1025 30.27 854 25.22 13.3 55.9 46 2 35.7 13.54 0.533
10:05 1025 30.27 854 25.22 13.3 55.9 46 1.9 35.5 13.54 0.533
10:06 1025 30.27 854 25.22 13.3 55.9 47 2.3 36.2 13.59 0.535
10:07 1025 30.27 854 25.22 13.3 56 46 1.9 35.4 13.64 0.537
10:08 1025 30.27 854 25.22 13.4 56.1 46 2.2 35.9 13.67 0.538
10:09 1025 30.27 854 25.22 13.4 56.2 46 2.2 36 13.8 0.543
10:10 1025 30.27 854 25.22 13.5 56.2 46 2.2 35.9 13.74 0.541
10:11 1025 30.27 854 25.22 13.5 56.3 47 2.5 36.4 13.78 0.543
10:12 1025 30.27 854 25.22 13.6 56.5 46 2.3 36.2 13.89 0.547
10:13 1025 30.27 854 25.22 13.7 56.6 45 2.2 35.9 13.94 0.549
10:14 1025 30.27 854 25.22 13.8 56.8 45 2.2 35.9 14.09 0.555
10:15 1025 30.27 854 25.22 13.9 57 45 2.1 35.7 14.17 0.558
10:16 1025 30.27 854 25.22 14 57.1 46 2.5 36.4 14.28 0.562
10:17 1025 30.27 854 25.22 14.1 57.3 45 2.5 36.5 14.34 0.565
10:18 1025 30.27 854 25.22 14.1 57.3 44 2.1 35.8 14.38 0.566
10:19 1025 30.27 854 25.22 14.2 57.6 43 2 35.6 14.54 0.572
10:20 1025 30.27 854 25.22 14.3 57.7 44 2.1 35.8 14.59 0.574
10:21 1025 30.27 854 25.22 14.3 57.7 44 2.4 36.3 14.52 0.572
10:22 1025 30.27 854 25.22 14.3 57.8 43 1.9 35.4 14.61 0.575
10:23 1025 30.27 854 25.22 14.4 57.8 46 3 37.4 14.61 0.575
10:24 1025 30.27 854 25.22 14.5 58.1 44 2.4 36.3 14.86 0.585
10:25 1025 30.27 854 25.22 14.6 58.2 43 2.1 35.7 14.8 0.583
10:26 1025 30.27 854 25.22 14.5 58 45 2.7 36.8 14.71 0.579
10:27 1025 30.27 854 25.22 14.5 58.1 44 2.5 36.5 14.83 0.584
10:28 1025 30.27 854 25.22 14.6 58.3 43 2.3 36.2 14.86 0.585
10:29 1025 30.27 854 25.22 14.6 58.3 42 2 35.6 14.9 0.587
10:30 1025 30.27 854 25.22 14.7 58.4 42 2 35.6 14.94 0.588
10:31 1025 30.27 854 25.22 14.7 58.5 45 3 37.4 14.94 0.588
10:32 1025 30.27 854 25.22 14.8 58.6 42 2.2 36 15.07 0.593
10:33 1025 30.27 854 25.22 14.9 58.7 44 2.9 37.3 15.11 0.595
10:34 1025 30.27 854 25.22 15 59.1 43 2.6 36.7 15.27 0.601
10:35 1025 30.27 854 25.22 15.1 59.3 40 1.9 35.4 15.46 0.609
10:36 1025 30.27 854 25.22 15.2 59.3 43 2.7 36.8 15.44 0.608
10:37 1025 30.27 854 25.22 15.1 59.2 41 2.2 35.9 15.38 0.606
10:38 1025 30.27 854 25.22 15.1 59.1 43 2.8 37 15.4 0.606
10:39 1025 30.27 854 25.22 15.3 59.5 43 2.8 37.1 15.59 0.614
10:40 1025 30.27 854 25.22 15.4 59.8 41 2.4 36.2 15.71 0.619
10:41 1025 30.27 854 25.22 15.4 59.8 40 1.9 35.5 15.68 0.617
10:42 1025 30.27 854 25.22 15.3 59.5 41 2.1 35.8 15.57 0.613
10:43 1025 30.27 854 25.22 15.2 59.3 40 1.9 35.4 15.46 0.609
10:44 1025 30.27 854 25.22 15.1 59.2 42 2.4 36.3 15.35 0.604
10:45 1025 30.27 854 25.22 15.1 59.2 42 2.5 36.5 15.39 0.606
10:46 1025 30.27 854 25.22 15.2 59.4 41 2.2 35.9 15.55 0.612
10:47 1024 30.24 854 25.22 15.2 59.4 43 2.7 36.9 15.53 0.611
10:48 1024 30.24 854 25.22 15.3 59.5 42 2.4 36.3 15.59 0.614
10:49 1024 30.24 854 25.22 15.3 59.6 41 2.3 36.1 15.69 0.618
10:50 1024 30.24 854 25.22 15.4 59.7 41 2.3 36.2 15.7 0.618
10:51 1024 30.24 854 25.22 15.4 59.7 43 2.9 37.2 15.73 0.619
10:52 1024 30.24 854 25.22 15.5 59.8 41 2.3 36.1 15.85 0.624
10:53 1024 30.24 854 25.22 15.6 60 42 2.9 37.1 15.93 0.627
10:54 1024 30.24 854 25.22 15.7 60.2 42 2.9 37.3 16.03 0.631
10:55 1024 30.24 854 25.22 15.8 60.4 38 1.7 35.1 16.08 0.633
10:56 1024 30.24 854 25.22 15.7 60.3 42 2.9 37.3 16.01 0.63
10:57 1024 30.24 854 25.22 15.8 60.4 41 2.5 36.6 16.1 0.634
10:58 1024 30.24 854 25.22 15.9 60.5 40 2.4 36.3 16.17 0.637
10:59 1024 30.24 853 25.19 15.8 60.4 39 2 35.5 16.14 0.635
11:00 1024 30.24 853 25.19 15.8 60.5 41 2.7 36.9 16.16 0.636
11:01 1024 30.24 853 25.19 15.9 60.6 39 2.1 35.7 16.24 0.639
11:02 1024 30.24 853 25.19 15.8 60.5 39 2.1 35.9 16.1 0.634
11:03 1024 30.24 853 25.19 15.8 60.4 39 2.1 35.7 16.1 0.634
11:04 1024 30.24 853 25.19 15.8 60.4 41 2.5 36.5 16.11 0.634
11:05 1024 30.24 853 25.19 15.9 60.6 40 2.5 36.6 16.26 0.64
11:06 1024 30.24 853 25.19 16.1 60.9 39 2 35.7 16.39 0.645
11:07 1024 30.24 853 25.19 16.1 60.9 38 1.9 35.4 16.35 0.644
11:08 1024 30.24 853 25.19 16 60.9 38 2 35.5 16.42 0.646
11:09 1024 30.24 853 25.19 16.1 61.1 39 2.4 36.3 16.5 0.65
11:10 1024 30.24 853 25.19 16.3 61.4 40 2.8 37 16.69 0.657
11:11 1024 30.24 853 25.19 16.5 61.6 40 3 37.3 16.77 0.66
11:12 1024 30.24 853 25.19 16.5 61.6 38 2.2 35.9 16.76 0.66
11:13 1024 30.24 853 25.19 16.3 61.4 38 2.1 35.7 16.57 0.652
11:14 1024 30.24 853 25.19 16.2 61.1 38 1.9 35.3 16.57 0.652
11:15 1024 30.24 853 25.19 16.2 61.2 38 2 35.5 16.5 0.65
11:16 1024 30.24 853 25.19 16.1 61.1 38 2.1 35.8 16.41 0.646
11:17 1024 30.24 853 25.19 16.1 61 39 2.3 36.1 16.44 0.647
11:18 1024 30.24 853 25.19 16.1 61 38 1.9 35.5 16.44 0.647
11:19 1024 30.24 853 25.19 16.2 61.1 39 2.4 36.3 16.52 0.65
11:20 1024 30.24 853 25.19 16.3 61.3 38 2 35.6 16.57 0.652
11:21 1024 30.24 853 25.19 16.3 61.3 39 2.3 36.1 16.59 0.653
11:22 1024 30.24 853 25.19 16.3 61.3 37 1.7 35.1 16.61 0.654
11:23 1024 30.24 853 25.19 16.3 61.3 37 1.8 35.2 16.64 0.655
11:24 1024 30.24 853 25.19 16.3 61.4 38 2.1 35.7 16.62 0.654
11:25 1024 30.24 853 25.19 16.3 61.3 38 2 35.6 16.64 0.655
11:26 1024 30.24 853 25.19 16.3 61.3 38 2 35.6 16.65 0.656
11:27 1024 30.24 853 25.19 16.4 61.4 36 1.4 34.5 16.68 0.657
11:28 1024 30.24 853 25.19 16.2 61.2 37 1.7 35 16.51 0.65
11:29 1024 30.24 853 25.19 16.3 61.3 38 2.2 35.9 16.59 0.653
11:30 1024 30.24 853 25.19 16.3 61.4 38 1.9 35.5 16.64 0.655
11:31 1024 30.24 853 25.19 16.4 61.5 38 2.1 35.8 16.74 0.659
11:32 1024 30.24 853 25.19 16.4 61.4 38 2.2 35.9 16.66 0.656
11:33 1024 30.24 853 25.19 16.3 61.3 38 2 35.7 16.64 0.655
11:34 1024 30.24 853 25.19 16.3 61.3 39 2.5 36.5 16.63 0.655
11:35 1024 30.24 853 25.19 16.4 61.6 36 1.6 34.9 16.78 0.661
11:36 1024 30.24 853 25.19 16.5 61.6 38 2.3 36.1 16.78 0.661
11:37 1024 30.24 853 25.19 16.5 61.7 36 1.7 35 16.85 0.663
11:38 1024 30.24 853 25.19 16.4 61.6 37 1.8 35.3 16.81 0.662
11:39 1024 30.24 853 25.19 16.4 61.6 36 1.4 34.5 16.79 0.661
11:40 1024 30.24 853 25.19 16.5 61.6 37 2 35.6 16.82 0.662
11:41 1024 30.24 853 25.19 16.5 61.7 38 2.2 35.9 16.83 0.663
11:42 1024 30.24 853 25.19 16.5 61.7 37 2 35.6 16.89 0.665
11:43 1024 30.24 853 25.19 16.6 61.8 37 1.9 35.5 16.93 0.667
11:44 1024 30.24 853 25.19 16.6 61.9 36 1.6 34.8 16.94 0.667
11:45 1024 30.24 853 25.19 16.5 61.8 38 2.4 36.3 16.89 0.665
11:46 1024 30.24 853 25.19 16.7 62 35 1.4 34.5 17.03 0.67
11:47 1024 30.24 853 25.19 16.6 61.8 37 1.8 35.3 16.88 0.665
11:48 1024 30.24 853 25.19 16.6 61.9 38 2.4 36.3 16.94 0.667
11:49 1024 30.24 853 25.19 16.8 62.2 36 1.8 35.3 17.26 0.68
11:50 1024 30.24 853 25.19 17 62.5 35 1.5 34.7 17.26 0.68
11:51 1024 30.24 853 25.19 16.8 62.3 38 2.4 36.3 17.16 0.676
11:52 1024 30.24 853 25.19 16.8 62.2 37 1.9 35.5 17.11 0.674
11:53 1024 30.24 853 25.19 16.7 62 35 1.4 34.5 17 0.669
11:54 1024 30.24 853 25.19 16.6 61.8 36 1.5 34.8 16.94 0.667
11:55 1024 30.24 853 25.19 16.6 61.9 37 1.9 35.5 16.99 0.669
11:56 1024 30.24 853 25.19 16.6 62 37 2.1 35.8 17.06 0.672
11:57 1024 30.24 853 25.19 16.7 62.1 35 1.2 34.1 17.11 0.674
11:58 1024 30.24 853 25.19 16.7 62 37 2.1 35.7 16.98 0.669
11:59 1024 30.24 853 25.19 16.6 62 35 1.1 34 17.03 0.67
12:00 1024 30.24 853 25.19 16.7 62 36 1.6 34.9 17.02 0.67
12:01 1024 30.24 853 25.19 16.8 62.2 39 2.8 37.1 17.18 0.676
12:02 1024 30.24 853 25.19 16.9 62.5 35 1.4 34.6 17.27 0.68
12:03 1024 30.24 853 25.19 16.9 62.4 36 1.7 35 17.22 0.678
12:04 1024 30.24 853 25.19 16.9 62.4 39 3.1 37.7 17.24 0.679
12:05 1024 30.24 853 25.19 17.1 62.9 35 1.7 35 17.54 0.691
12:06 1023 30.21 853 25.19 17.1 62.8 35 1.5 34.8 17.43 0.686
12:07 1023 30.21 853 25.19 17 62.6 39 2.9 37.3 17.31 0.681
12:08 1023 30.21 853 25.19 17 62.6 36 2 35.5 17.37 0.684
12:09 1023 30.21 853 25.19 16.9 62.5 36 2 35.5 17.27 0.68
12:10 1023 30.21 853 25.19 16.9 62.4 37 2.2 35.9 17.18 0.676
12:11 1023 30.21 853 25.19 16.9 62.5 36 2 35.5 17.38 0.684
12:12 1023 30.21 853 25.19 17 62.7 36 2.1 35.8 17.4 0.685
12:13 1023 30.21 853 25.19 17.1 62.7 36 2.2 36 17.45 0.687
12:14 1023 30.21 853 25.19 17.2 63 38 2.9 37.3 17.59 0.693
12:15 1023 30.21 853 25.19 17.3 63.1 35 1.7 35.1 17.57 0.692
12:16 1023 30.21 852 25.16 17.1 62.7 38 2.7 36.9 17.38 0.684
12:17 1023 30.21 852 25.16 17.1 62.8 37 2.3 36.2 17.45 0.687
12:18 1023 30.21 852 25.16 17.1 62.8 35 1.7 35.1 17.5 0.689
12:19 1023 30.21 852 25.16 17.2 63 35 1.7 35.1 17.59 0.693
12:20 1023 30.21 852 25.16 17.3 63.1 35 1.6 34.9 17.61 0.693
12:21 1023 30.21 852 25.16 17.2 63 38 3 37.4 17.48 0.688
12:22 1023 30.21 852 25.16 17.2 63 39 3.1 37.6 17.61 0.693
12:23 1023 30.21 852 25.16 17.4 63.3 35 2 35.6 17.79 0.7
12:24 1023 30.21 852 25.16 17.5 63.4 35 1.8 35.2 17.8 0.701
12:25 1023 30.21 852 25.16 17.4 63.2 33 1.1 34 17.65 0.695
12:26 1023 30.21 852 25.16 17.3 63.1 35 1.7 35 17.63 0.694
12:27 1023 30.21 852 25.16 17.2 63 35 1.9 35.4 17.53 0.69
12:28 1023 30.21 852 25.16 17.1 62.9 37 2.5 36.5 17.56 0.691
12:29 1023 30.21 852 25.16 17.3 63.2 36 2.4 36.3 17.7 0.697
12:30 1023 30.21 852 25.16 17.3 63.2 35 1.8 35.3 17.67 0.696
12:31 1023 30.21 852 25.16 17.2 63 37 2.6 36.6 17.52 0.69
12:32 1023 30.21 852 25.16 17.2 62.9 36 1.9 35.5 17.55 0.691
12:33 1023 30.21 852 25.16 17.2 63 35 1.8 35.3 17.59 0.693
12:34 1023 30.21 852 25.16 17.4 63.3 34 1.3 34.4 17.78 0.7
12:35 1023 30.21 852 25.16 17.5 63.5 33 1.3 34.4 17.82 0.702
12:36 1023 30.21 852 25.16 17.4 63.4 35 2.1 35.7 17.75 0.699
12:37 1023 30.21 852 25.16 17.5 63.6 35 2 35.6 17.96 0.707
12:38 1023 30.21 852 25.16 17.7 63.8 35 2.3 36.2 18.06 0.711
12:39 1023 30.21 852 25.16 17.8 64.1 37 3 37.3 18.21 0.717
12:40 1023 30.21 852 25.16 18 64.3 35 2.5 36.5 18.38 0.724
12:41 1023 30.21 852 25.16 18.1 64.5 35 2.7 36.9 18.43 0.726
12:42 1023 30.21 852 25.16 18.1 64.6 33 1.9 35.4 18.41 0.725
12:43 1023 30.21 852 25.16 17.9 64.2 35 2.5 36.6 18.16 0.715
12:44 1023 30.21 852 25.16 17.6 63.7 34 1.9 35.3 17.96 0.707
12:45 1023 30.21 852 25.16 17.6 63.6 37 2.9 37.2 17.91 0.705
12:46 1023 30.21 852 25.16 17.6 63.6 35 2.2 36 17.95 0.707
12:47 1023 30.21 852 25.16 17.6 63.7 37 2.9 37.2 18.03 0.71
12:48 1023 30.21 852 25.16 17.8 64.1 33 1.5 34.7 18.21 0.717
12:49 1023 30.21 852 25.16 17.7 63.9 35 2 35.6 18.04 0.71
12:50 1023 30.21 852 25.16 17.7 63.9 36 2.7 36.8 18.03 0.71
12:51 1023 30.21 852 25.16 17.7 63.8 36 2.5 36.5 17.91 0.705
12:52 1023 30.21 852 25.16 17.5 63.6 35 2.1 35.8 17.87 0.704
12:53 1023 30.21 852 25.16 17.5 63.5 37 2.8 37 17.85 0.703
12:54 1023 30.21 852 25.16 17.5 63.6 36 2.6 36.7 17.88 0.704
12:55 1023 30.21 852 25.16 17.7 63.8 36 2.6 36.7 18.09 0.712
12:56 1023 30.21 852 25.16 17.8 64 36 2.7 36.8 18.11 0.713
12:57 1023 30.21 852 25.16 17.8 64 35 2.3 36.2 18.03 0.71
12:58 1023 30.21 852 25.16 17.7 63.8 36 2.6 36.7 18.03 0.71
12:59 1023 30.21 852 25.16 17.8 64.1 35 2.4 36.4 18.17 0.715
13:00 1023 30.21 852 25.16 17.8 64 35 2.1 35.8 18.12 0.713
13:01 1023 30.21 852 25.16 17.7 63.8 36 2.5 36.5 17.99 0.708
13:02 1023 30.21 852 25.16 17.8 64 37 2.9 37.2 18.07 0.711
13:03 1023 30.21 852 25.16 17.8 64 36 2.7 36.9 18.16 0.715
13:04 1023 30.21 852 25.16 17.9 64.3 35 2.4 36.3 18.26 0.719
13:05 1023 30.21 852 25.16 17.9 64.2 37 3.1 37.6 18.27 0.719
13:06 1023 30.21 852 25.16 18 64.4 37 3.3 37.9 18.38 0.724
13:07 1023 30.21 852 25.16 18.1 64.6 33 1.8 35.3 18.47 0.727
13:08 1023 30.21 852 25.16 18 64.4 34 2.2 35.9 18.27 0.719
13:09 1023 30.21 852 25.16 18 64.3 35 2.3 36.2 18.3 0.72
13:10 1023 30.21 852 25.16 18.1 64.5 34 2.2 35.9 18.4 0.724
13:11 1023 30.21 852 25.16 18 64.5 36 3 37.4 18.36 0.723
13:12 1023 30.21 852 25.16 18 64.4 35 2.6 36.8 18.36 0.723
13:13 1023 30.21 852 25.16 18 64.5 35 2.5 36.5 18.39 0.724
13:14 1023 30.21 852 25.16 18.1 64.6 35 2.5 36.6 18.47 0.727
13:15 1023 30.21 852 25.16 18.1 64.5 35 2.6 36.6 18.45 0.726
13:16 1023 30.21 852 25.16 18.2 64.7 35 2.4 36.3 18.55 0.73
13:17 1023 30.21 852 25.16 18.2 64.7 33 1.6 34.8 18.52 0.729
13:18 1023 30.21 852 25.16 18.1 64.6 37 3.2 37.8 18.51 0.729
13:19 1023 30.21 852 25.16 18.3 64.9 33 1.7 35.1 18.7 0.736
13:20 1022 30.18 852 25.16 18.3 64.9 33 1.9 35.4 18.6 0.732
13:21 1023 30.21 852 25.16 18.2 64.7 35 2.6 36.6 18.48 0.728
13:22 1023 30.21 852 25.16 18.3 65 33 2 35.7 18.72 0.737
13:23 1022 30.18 852 25.16 18.4 65.1 32 1.6 34.9 18.76 0.739
13:24 1022 30.18 852 25.16 18.4 65.1 33 2 35.6 18.75 0.738
13:25 1022 30.18 852 25.16 18.5 65.2 34 2.5 36.5 18.87 0.743
13:26 1022 30.18 852 25.16 18.7 65.7 34 2.8 37 19.07 0.751
13:27 1022 30.18 852 25.16 18.8 65.8 32 2 35.6 19.1 0.752
13:28 1022 30.18 852 25.16 18.7 65.7 33 2.4 36.3 19.01 0.748
13:29 1022 30.18 852 25.16 18.7 65.7 33 2.2 36 19.04 0.75
13:30 1022 30.18 852 25.16 18.8 65.8 32 1.7 35.1 19.13 0.753
13:31 1022 30.18 852 25.16 18.7 65.7 32 1.9 35.4 19.06 0.75
13:32 1022 30.18 852 25.16 18.7 65.6 31 1.5 34.8 18.94 0.746
13:33 1022 30.18 852 25.16 18.5 65.3 33 2.2 36 18.82 0.741
13:34 1022 30.18 852 25.16 18.7 65.6 33 2.1 35.9 19.08 0.751
13:35 1022 30.18 852 25.16 18.7 65.7 33 2.4 36.4 19.03 0.749
13:36 1022 30.18 852 25.16 18.7 65.7 32 1.9 35.5 19.06 0.75
13:37 1022 30.18 852 25.16 18.8 65.8 33 2.3 36.1 19.13 0.753
13:38 1022 30.18 852 25.16 18.8 65.8 35 3.3 38 19.1 0.752
13:39 1022 30.18 852 25.16 18.9 66 32 2 35.6 19.27 0.759
13:40 1022 30.18 851 25.13 18.9 66 32 2.1 35.7 19.15 0.754
13:41 1022 30.18 851 25.13 18.8 65.9 33 2.2 36 19.08 0.751
13:42 1022 30.18 851 25.13 18.8 65.8 33 2.5 36.4 19.08 0.751
13:43 1022 30.18 851 25.13 18.9 65.9 32 1.9 35.5 19.26 0.758
13:44 1022 30.18 851 25.13 18.9 66.1 33 2.4 36.3 19.23 0.757
13:45 1022 30.18 851 25.13 18.9 66 34 3 37.4 19.2 0.756
13:46 1022 30.18 851 25.13 18.9 66.1 33 2.4 36.3 19.31 0.76
13:47 1022 30.18 851 25.13 19 66.1 32 2 35.6 19.32 0.761
13:48 1022 30.18 851 25.13 18.8 65.8 33 2.5 36.5 19.14 0.754
13:49 1022 30.18 851 25.13 18.8 65.8 34 2.6 36.7 19.1 0.752
13:50 1022 30.18 851 25.13 18.8 65.8 34 2.6 36.7 19.18 0.755
13:51 1022 30.18 851 25.13 18.8 65.8 32 1.8 35.2 19.16 0.754
13:52 1022 30.18 851 25.13 18.8 65.9 33 2.3 36.1 19.25 0.758
13:53 1022 30.18 851 25.13 18.9 65.9 32 2.1 35.7 19.27 0.759
13:54 1022 30.18 851 25.13 19 66.1 32 2.2 36 19.39 0.763
13:55 1022 30.18 851 25.13 19.1 66.4 33 2.4 36.4 19.56 0.77
13:56 1022 30.18 851 25.13 19.2 66.6 31 2 35.5 19.59 0.771
13:57 1022 30.18 851 25.13 19.1 66.3 32 2.2 35.9 19.45 0.766
13:58 1022 30.18 851 25.13 19.1 66.4 32 2.2 35.9 19.56 0.77
13:59 1022 30.18 851 25.13 19.2 66.5 30 1.5 34.7 19.56 0.77
14:00 1022 30.18 851 25.13 19 66.3 32 2 35.5 19.33 0.761
14:01 1022 30.18 851 25.13 18.9 66.1 32 2.2 35.9 19.31 0.76
14:02 1022 30.18 851 25.13 19.1 66.3 32 2 35.5 19.44 0.765
14:03 1022 30.18 851 25.13 19.1 66.3 31 1.5 34.8 19.41 0.764
14:04 1022 30.18 851 25.13 19 66.2 31 1.8 35.2 19.33 0.761
14:05 1022 30.18 851 25.13 19 66.2 31 1.5 34.7 19.35 0.762
14:06 1022 30.18 851 25.13 19 66.2 32 2 35.6 19.32 0.761
14:07 1022 30.18 851 25.13 19 66.2 33 2.7 36.9 19.41 0.764
14:08 1022 30.18 851 25.13 19.1 66.5 31 1.8 35.2 19.5 0.768
14:09 1022 30.18 851 25.13 19 66.3 31 1.7 35 19.42 0.765
14:10 1022 30.18 851 25.13 19 66.2 32 2.1 35.8 19.42 0.765
14:11 1022 30.18 851 25.13 19.2 66.6 32 2.2 35.9 19.64 0.773
14:12 1022 30.18 851 25.13 19.3 66.8 32 2.3 36.1 19.78 0.779
14:13 1022 30.18 851 25.13 19.5 67.2 32 2.6 36.6 19.92 0.784
14:14 1022 30.18 851 25.13 19.7 67.4 32 2.8 37 20.08 0.791
14:15 1022 30.18 851 25.13 19.7 67.5 31 2.2 35.9 20.12 0.792
14:16 1022 30.18 851 25.13 19.6 67.4 30 1.9 35.4 19.97 0.786
14:17 1022 30.18 851 25.13 19.6 67.2 31 1.9 35.5 19.95 0.785
14:18 1022 30.18 851 25.13 19.6 67.3 30 1.7 35.1 19.97 0.786
14:19 1022 30.18 851 25.13 19.5 67.1 31 2.3 36.1 19.87 0.782
14:20 1022 30.18 851 25.13 19.6 67.2 30 1.8 35.2 19.97 0.786
14:21 1022 30.18 851 25.13 19.6 67.2 30 1.8 35.3 19.94 0.785
14:22 1022 30.18 851 25.13 19.7 67.4 30 1.9 35.3 20.09 0.791
14:23 1022 30.18 851 25.13 19.8 67.6 31 2.4 36.4 20.05 0.789
14:24 1022 30.18 851 25.13 19.7 67.4 32 2.7 36.8 20.03 0.789
14:25 1022 30.18 851 25.13 19.8 67.6 30 2 35.6 20.15 0.793
14:26 1022 30.18 851 25.13 19.8 67.6 30 1.8 35.3 20.15 0.793
14:27 1022 30.18 851 25.13 19.6 67.4 30 1.7 35.1 20.06 0.79
14:28 1022 30.18 851 25.13 19.5 67.2 31 2 35.6 19.94 0.785
14:29 1021 30.15 851 25.13 19.6 67.2 30 1.8 35.3 19.94 0.785
14:30 1021 30.15 851 25.13 19.5 67.1 31 1.9 35.4 19.86 0.782
14:31 1021 30.15 851 25.13 19.6 67.2 31 2.3 36.2 20.01 0.788
14:32 1021 30.15 851 25.13 19.7 67.5 30 2 35.5 20.15 0.793
14:33 1022 30.18 851 25.13 19.9 67.7 31 2.2 35.9 20.28 0.798
14:34 1021 30.15 851 25.13 20.1 68.2 28 1.4 34.5 20.51 0.807
14:35 1021 30.15 851 25.13 20.3 68.5 30 2.2 36 20.63 0.812
14:36 1021 30.15 851 25.13 20.2 68.4 29 2 35.6 20.5 0.807
14:37 1021 30.15 850 25.1 20 68 30 1.9 35.4 20.36 0.802
14:38 1021 30.15 851 25.13 19.8 67.6 31 2.2 35.9 20.19 0.795
14:39 1021 30.15 850 25.1 19.9 67.7 30 1.9 35.5 20.34 0.801
14:40 1021 30.15 851 25.13 20 68 29 1.6 34.9 20.34 0.801
14:41 1021 30.15 851 25.13 19.9 67.9 28 1.2 34.1 20.29 0.799
14:42 1021 30.15 850 25.1 19.9 67.8 30 1.8 35.2 20.15 0.793
14:43 1021 30.15 851 25.13 19.8 67.7 30 1.8 35.3 20.23 0.796
14:44 1021 30.15 850 25.1 19.9 67.8 31 2.4 36.3 20.19 0.795
14:45 1021 30.15 850 25.1 19.9 67.9 28 1.2 34.1 20.32 0.8
14:46 1021 30.15 850 25.1 20 68 29 1.5 34.7 20.39 0.803
14:47 1021 30.15 850 25.1 20.1 68.1 28 1.1 33.9 20.45 0.805
14:48 1021 30.15 850 25.1 20.1 68.1 30 1.9 35.5 20.48 0.806
14:49 1021 30.15 850 25.1 20 68 29 1.4 34.5 20.38 0.802
14:50 1021 30.15 850 25.1 20 67.9 29 1.8 35.2 20.32 0.8
14:51 1021 30.15 850 25.1 20 68 29 1.8 35.3 20.33 0.8
14:52 1021 30.15 850 25.1 20 68 28 1.3 34.3 20.34 0.801
14:53 1021 30.15 850 25.1 20 67.9 28 1.2 34.1 20.3 0.799
14:54 1021 30.15 850 25.1 19.9 67.9 28 0.8 33.5 20.3 0.799
14:55 1021 30.15 850 25.1 19.9 67.8 27 0.3 32.6 20.21 0.796
14:56 1021 30.15 850 25.1 19.9 67.8 28 1.2 34.1 20.27 0.798
14:57 1021 30.15 850 25.1 20 68.1 29 1.4 34.5 20.42 0.804
14:58 1021 30.15 850 25.1 20 68 28 0.9 33.7 20.37 0.802
14:59 1021 30.15 850 25.1 20.1 68.1 28 1.4 34.4 20.42 0.804
15:00 1021 30.15 850 25.1 20.1 68.2 27 0.8 33.4 20.46 0.806
15:01 1021 30.15 850 25.1 20 67.9 29 1.4 34.4 20.34 0.801
15:02 1021 30.15 850 25.1 19.9 67.9 29 1.5 34.8 20.32 0.8
15:03 1021 30.15 850 25.1 20 68 28 1.3 34.3 20.34 0.801
15:04 1021 30.15 850 25.1 20 68 28 0.9 33.6 20.42 0.804
15:05 1021 30.15 850 25.1 20 68 27 0.8 33.5 20.41 0.804
15:06 1021 30.15 850 25.1 20 68 28 1.2 34.2 20.33 0.8
15:07 1021 30.15 850 25.1 20 68.1 28 1.3 34.4 20.47 0.806
15:08 1021 30.15 850 25.1 20.2 68.3 30 2 35.6 20.59 0.811
15:09 1021 30.15 850 25.1 20.3 68.6 28 1.4 34.5 20.73 0.816
15:10 1021 30.15 850 25.1 20.4 68.7 27 1.2 34.1 20.72 0.816
15:11 1021 30.15 850 25.1 20.4 68.7 29 2 35.7 20.85 0.821
15:12 1021 30.15 850 25.1 20.5 68.9 27 1 33.9 20.89 0.822
15:13 1021 30.15 850 25.1 20.5 68.8 27 1.2 34.1 20.76 0.817
15:14 1021 30.15 850 25.1 20.5 68.8 28 1.4 34.4 20.76 0.817
15:15 1021 30.15 850 25.1 20.5 68.8 27 1.1 34 20.79 0.819
15:16 1021 30.15 850 25.1 20.5 68.9 27 1.2 34.1 20.87 0.822
15:17 1021 30.15 850 25.1 20.6 69.1 27 1 33.8 20.92 0.824
15:18 1021 30.15 850 25.1 20.6 69.1 26 0.5 32.9 20.94 0.824
15:19 1021 30.15 850 25.1 20.6 69.1 26 0.8 33.4 20.91 0.823
15:20 1021 30.15 850 25.1 20.6 69.1 29 2.2 35.9 20.97 0.826
15:21 1021 30.15 850 25.1 20.7 69.2 26 0.8 33.4 21.07 0.83
15:22 1021 30.15 850 25.1 20.7 69.2 28 1.7 35 21.02 0.828
15:23 1021 30.15 850 25.1 20.6 69.2 26 0.9 33.5 21.05 0.829
15:24 1021 30.15 850 25.1 20.7 69.2 29 2.3 36.1 21.07 0.83
15:25 1021 30.15 850 25.1 20.8 69.4 25 0.1 32.2 21.16 0.833
15:26 1021 30.15 850 25.1 20.7 69.3 25 -0 32 21.02 0.828
15:27 1021 30.15 850 25.1 20.7 69.2 25 0.2 32.3 20.99 0.826
15:28 1021 30.15 850 25.1 20.6 69.2 26 0.5 33 20.91 0.823
15:29 1021 30.15 850 25.1 20.7 69.2 26 0.4 32.7 21 0.827
15:30 1021 30.15 850 25.1 20.7 69.3 28 1.5 34.8 21.04 0.828
15:31 1021 30.15 850 25.1 20.6 69.1 27 1.1 34 20.96 0.825
15:32 1021 30.15 850 25.1 20.6 69 26 0.8 33.4 20.97 0.826
15:33 1021 30.15 850 25.1 20.5 68.9 26 0.5 32.8 20.89 0.822
15:34 1021 30.15 850 25.1 20.5 68.8 26 0.4 32.7 20.79 0.819
15:35 1021 30.15 850 25.1 20.4 68.8 27 0.7 33.3 20.74 0.817
15:36 1021 30.15 850 25.1 20.5 68.8 26 0.6 33 20.83 0.82
15:37 1021 30.15 850 25.1 20.6 69.1 26 0.8 33.4 20.96 0.825
15:38 1021 30.15 850 25.1 20.8 69.4 24 -0.2 31.6 21.15 0.833
15:39 1020 30.12 850 25.1 20.9 69.6 26 0.6 33 21.25 0.837
15:40 1020 30.12 850 25.1 21 69.7 24 -0.2 31.6 21.27 0.837
15:41 1021 30.15 850 25.1 20.8 69.5 26 0.8 33.4 21.14 0.832
15:42 1020 30.12 850 25.1 20.8 69.4 25 0.4 32.8 21.08 0.83
15:43 1021 30.15 850 25.1 20.7 69.2 26 0.7 33.3 20.97 0.826
15:44 1020 30.12 850 25.1 20.7 69.2 25 -0.1 31.8 20.98 0.826
15:45 1020 30.12 850 25.1 20.6 69 27 1.1 33.9 20.87 0.822
15:46 1020 30.12 850 25.1 20.6 69 28 1.3 34.4 20.88 0.822
15:47 1020 30.12 850 25.1 20.6 69.1 26 0.5 32.9 20.96 0.825
15:48 1020 30.12 850 25.1 20.6 69.1 27 1.1 34 20.92 0.824
15:49 1020 30.12 850 25.1 20.6 69 25 -0 31.9 20.91 0.823
15:50 1020 30.12 850 25.1 20.5 68.8 26 0.5 33 20.7 0.815
15:51 1020 30.12 850 25.1 20.5 68.9 27 0.8 33.5 20.83 0.82
15:52 1020 30.12 849 25.07 20.6 69.1 28 1.4 34.5 20.95 0.825
15:53 1020 30.12 849 25.07 20.7 69.2 27 1.3 34.4 21.07 0.83
15:54 1020 30.12 850 25.1 20.9 69.5 27 1.5 34.7 21.28 0.838
15:55 1020 30.12 850 25.1 21.1 69.9 25 0.4 32.7 21.48 0.846
15:56 1020 30.12 849 25.07 21.2 70.2 28 2.4 36.4 21.6 0.85
15:57 1020 30.12 849 25.07 21.3 70.3 27 1.9 35.5 21.61 0.851
15:58 1020 30.12 849 25.07 21.2 70.1 25 0.4 32.7 21.47 0.845
15:59 1020 30.12 850 25.1 20.9 69.6 26 0.9 33.6 21.18 0.834
16:00 1020 30.12 850 25.1 20.8 69.4 26 0.5 33 21.09 0.83
16:01 1020 30.12 849 25.07 20.6 69.1 26 0.4 32.7 20.95 0.825
16:02 1020 30.12 849 25.07 20.5 68.9 28 1.8 35.2 20.91 0.823
16:03 1020 30.12 850 25.1 20.6 69.1 26 0.8 33.4 21.05 0.829
16:04 1020 30.12 849 25.07 20.7 69.2 25 -0.1 31.9 21.02 0.828
16:05 1020 30.12 849 25.07 20.6 69 27 1 33.9 20.9 0.823
16:06 1020 30.12 849 25.07 20.6 69.1 27 1.1 33.9 20.98 0.826
16:07 1020 30.12 849 25.07 20.7 69.2 28 1.8 35.3 21.04 0.828
16:08 1020 30.12 849 25.07 20.7 69.3 27 1.1 33.9 21.08 0.83
16:09 1020 30.12 849 25.07 20.7 69.3 25 0.3 32.6 21.06 0.829
16:10 1020 30.12 849 25.07 20.8 69.4 27 1.1 33.9 21.05 0.829
16:11 1020 30.12 849 25.07 20.7 69.3 27 1.4 34.5 21.05 0.829
16:12 1020 30.12 849 25.07 20.8 69.5 25 0.2 32.4 21.14 0.832
16:13 1020 30.12 849 25.07 20.9 69.6 26 0.8 33.5 21.14 0.832
16:14 1020 30.12 849 25.07 20.9 69.6 25 0.3 32.6 21.2 0.835
16:15 1020 30.12 849 25.07 20.8 69.5 25 0.4 32.7 21.14 0.832
16:16 1020 30.12 849 25.07 20.8 69.4 24 -0.2 31.6 21.09 0.83
16:17 1020 30.12 849 25.07 20.8 69.4 24 -0.2 31.7 21.12 0.831
16:18 1020 30.12 849 25.07 20.7 69.3 25 0.3 32.5 21.02 0.828
16:19 1020 30.12 849 25.07 20.8 69.4 24 -0.1 31.8 21.08 0.83
16:20 1020 30.12 849 25.07 20.7 69.3 24 -0.2 31.6 21.09 0.83
16:21 1020 30.12 849 25.07 20.6 69.1 25 0.2 32.3 20.91 0.823
16:22 1020 30.12 849 25.07 20.6 69 25 -0 32 20.86 0.821
16:23 1020 30.12 849 25.07 20.5 68.9 25 0.1 32.2 20.88 0.822
16:24 1020 30.12 849 25.07 20.6 69 25 -0.1 31.8 20.87 0.822
16:25 1020 30.12 849 25.07 20.5 68.9 26 0.4 32.7 20.81 0.819
16:26 1020 30.12 849 25.07 20.5 68.9 26 0.3 32.6 20.81 0.819
16:27 1020 30.12 849 25.07 20.5 68.9 26 0.4 32.7 20.86 0.821
16:28 1020 30.12 849 25.07 20.5 69 25 0 32 20.87 0.822
16:29 1020 30.12 849 25.07 20.5 68.9 25 -0.2 31.6 20.83 0.82
16:30 1020 30.12 849 25.07 20.4 68.8 25 -0.1 31.7 20.72 0.816
16:31 1020 30.12 849 25.07 20.4 68.6 25 -0.2 31.7 20.68 0.814
16:32 1020 30.12 849 25.07 20.4 68.6 27 0.8 33.5 20.73 0.816
16:33 1020 30.12 849 25.07 20.5 68.9 25 0.1 32.2 20.88 0.822
16:34 1020 30.12 849 25.07 20.6 69 25 -0.2 31.7 20.89 0.822
16:35 1020 30.12 849 25.07 20.5 68.9 26 0.6 33.2 20.83 0.82
16:36 1020 30.12 849 25.07 20.5 68.9 25 -0.1 31.9 20.91 0.823
16:37 1020 30.12 849 25.07 20.6 69 24 -0.5 31.2 20.87 0.822
16:38 1020 30.12 849 25.07 20.5 68.9 24 -0.5 31.1 20.89 0.822
16:39 1020 30.12 849 25.07 20.6 69 26 0.5 32.8 20.87 0.822
16:40 1020 30.12 849 25.07 20.6 69.1 26 0.7 33.2 20.98 0.826
16:41 1020 30.12 849 25.07 20.7 69.2 24 -0.5 31.1 20.99 0.826
16:42 1020 30.12 849 25.07 20.6 69 24 -0.5 31.1 20.86 0.821
16:43 1020 30.12 849 25.07 20.5 68.9 25 0.2 32.4 20.81 0.819
16:44 1020 30.12 849 25.07 20.5 68.9 24 -0.5 31.1 20.83 0.82
16:45 1020 30.12 849 25.07 20.4 68.7 25 -0.4 31.3 20.69 0.815
16:46 1020 30.12 849 25.07 20.3 68.6 25 0.1 32.1 20.67 0.814
16:47 1020 30.12 849 25.07 20.3 68.5 25 0 32.1 20.65 0.813
16:48 1020 30.12 849 25.07 20.3 68.6 27 0.8 33.5 20.69 0.815
16:49 1020 30.12 849 25.07 20.5 68.8 26 0.3 32.5 20.78 0.818
16:50 1020 30.12 849 25.07 20.5 69 24 -0.3 31.5 20.89 0.822
16:51 1020 30.12 849 25.07 20.5 69 25 0 32.1 20.86 0.821
16:52 1020 30.12 849 25.07 20.5 68.9 25 -0.1 31.9 20.88 0.822
16:53 1020 30.12 849 25.07 20.6 69.1 25 0 32 20.95 0.825
16:54 1020 30.12 849 25.07 20.7 69.3 24 -0.3 31.5 21.05 0.829
16:55 1020 30.12 849 25.07 20.7 69.2 24 -0.5 31 21.01 0.827
16:56 1020 30.12 849 25.07 20.6 69.1 24 -0.3 31.5 20.92 0.824
16:57 1020 30.12 849 25.07 20.6 69.1 25 -0.1 31.9 20.91 0.823
16:58 1020 30.12 849 25.07 20.6 69 24 -0.4 31.3 20.88 0.822
16:59 1020 30.12 849 25.07 20.5 68.9 24 -0.5 31.1 20.82 0.82
17:00 1020 30.12 849 25.07 20.5 68.8 24 -0.7 30.7 20.76 0.817
17:01 1020 30.12 849 25.07 20.4 68.8 24 -0.7 30.8 20.76 0.817
17:02 1020 30.12 849 25.07 20.4 68.7 24 -0.8 30.5 20.76 0.817
17:03 1020 30.12 849 25.07 20.4 68.7 24 -0.9 30.3 20.73 0.816
17:04 1020 30.12 849 25.07 20.3 68.6 24 -0.7 30.7 20.6 0.811
17:05 1020 30.12 849 25.07 20.3 68.5 23 -1.2 29.8 20.61 0.811
17:06 1020 30.12 849 25.07 20.3 68.5 24 -1 30.2 20.61 0.811
17:07 1020 30.12 849 25.07 20.3 68.5 24 -0.9 30.3 20.61 0.811
17:08 1020 30.12 849 25.07 20.3 68.6 23 -1.1 30.1 20.66 0.813
17:09 1020 30.12 849 25.07 20.3 68.6 23 -1.1 30 20.65 0.813
17:10 1020 30.12 849 25.07 20.3 68.5 22 -1.7 29 20.59 0.811
17:11 1020 30.12 849 25.07 20.3 68.5 23 -1.3 29.6 20.59 0.811
17:12 1020 30.12 849 25.07 20.3 68.6 25 -0.4 31.4 20.67 0.814
17:13 1020 30.12 849 25.07 20.4 68.6 24 -0.9 30.3 20.67 0.814
17:14 1020 30.12 849 25.07 20.3 68.6 23 -1.6 29.2 20.65 0.813
17:15 1020 30.12 849 25.07 20.3 68.6 23 -1.2 29.9 20.61 0.811
17:16 1020 30.12 849 25.07 20.3 68.5 24 -0.8 30.5 20.61 0.811
17:17 1020 30.12 849 25.07 20.3 68.5 24 -1 30.2 20.59 0.811
17:18 1020 30.12 849 25.07 20.3 68.5 23 -1.3 29.7 20.61 0.811
17:19 1020 30.12 849 25.07 20.2 68.4 23 -1.1 30 20.59 0.811
17:20 1020 30.12 849 25.07 20.2 68.4 23 -1.2 29.8 20.57 0.81
17:21 1020 30.12 849 25.07 20.2 68.4 23 -1.3 29.7 20.5 0.807
17:22 1020 30.12 849 25.07 20.2 68.3 24 -0.6 30.9 20.54 0.809
17:23 1020 30.12 849 25.07 20.2 68.3 23 -1.5 29.2 20.55 0.809
17:24 1020 30.12 849 25.07 20.1 68.3 23 -1.4 29.4 20.43 0.804
17:25 1020 30.12 849 25.07 20.1 68.2 23 -1.7 29 20.41 0.804
17:26 1020 30.12 849 25.07 20.1 68.2 23 -1.5 29.3 20.45 0.805
17:27 1020 30.12 849 25.07 20.1 68.2 23 -1.6 29 20.46 0.806
17:28 1020 30.12 849 25.07 20.1 68.1 23 -1.8 28.8 20.37 0.802
17:29 1020 30.12 849 25.07 20 68 24 -1 30.1 20.34 0.801
17:30 1020 30.12 849 25.07 20 68 23 -1.8 28.7 20.36 0.802
17:31 1020 30.12 849 25.07 20 68.1 24 -1.2 29.9 20.34 0.801
17:32 1020 30.12 849 25.07 20 68 24 -1.1 30 20.35 0.801
17:33 1020 30.12 849 25.07 20 68.1 23 -1.4 29.5 20.39 0.803
17:34 1020 30.12 849 25.07 20 68.1 23 -1.4 29.5 20.33 0.8
17:35 1020 30.12 849 25.07 20 68 24 -1.1 29.9 20.35 0.801
17:36 1020 30.12 849 25.07 20 68 23 -1.8 28.7 20.33 0.8
17:37 1020 30.12 849 25.07 20 67.9 25 -0.7 30.8 20.28 0.798
17:38 1020 30.12 849 25.07 20 68 24 -1.2 29.9 20.28 0.798
17:39 1020 30.12 849 25.07 20 67.9 24 -1.1 30.1 20.24 0.797
17:40 1020 30.12 849 25.07 19.9 67.8 23 -1.7 29 20.23 0.796
17:41 1020 30.12 849 25.07 19.8 67.7 23 -1.5 29.3 20.18 0.794
17:42 1020 30.12 849 25.07 19.8 67.7 24 -1.4 29.4 20.13 0.793
17:43 1020 30.12 849 25.07 19.8 67.6 23 -1.6 29.1 20.11 0.792
17:44 1020 30.12 849 25.07 19.8 67.7 23 -1.9 28.7 20.14 0.793
17:45 1020 30.12 849 25.07 19.8 67.7 23 -1.9 28.6 20.13 0.793
17:46 1020 30.12 849 25.07 19.8 67.6 23 -1.7 28.9 20.09 0.791
17:47 1020 30.12 849 25.07 19.7 67.5 23 -2 28.4 20.07 0.79
17:48 1020 30.12 849 25.07 19.7 67.4 23 -1.9 28.6 20.05 0.789
17:49 1020 30.12 849 25.07 19.7 67.4 24 -1.5 29.3 20.03 0.789
17:50 1020 30.12 849 25.07 19.7 67.4 23 -1.8 28.7 20.03 0.789
17:51 1020 30.12 849 25.07 19.7 67.4 23 -1.8 28.8 20 0.787
17:52 1020 30.12 849 25.07 19.7 67.4 24 -1.4 29.4 20.02 0.788
17:53 1020 30.12 849 25.07 19.6 67.3 25 -0.8 30.6 20 0.787
17:54 1020 30.12 849 25.07 19.6 67.4 25 -0.8 30.6 19.98 0.787
17:55 1020 30.12 849 25.07 19.6 67.3 24 -1.3 29.6 19.96 0.786
17:56 1020 30.12 849 25.07 19.6 67.3 24 -1.6 29.1 19.97 0.786
17:57 1020 30.12 849 25.07 19.6 67.3 23 -2.2 28.1 19.96 0.786
17:58 1020 30.12 849 25.07 19.6 67.3 24 -1.4 29.5 19.97 0.786
17:59 1020 30.12 849 25.07 19.6 67.3 24 -1.3 29.7 19.99 0.787
18:00 1020 30.12 849 25.07 19.6 67.3 24 -1.6 29.1 19.94 0.785
18:01 1020 30.12 849 25.07 19.5 67.1 24 -1.3 29.6 19.86 0.782
18:02 1020 30.12 849 25.07 19.5 67.1 24 -1.7 28.9 19.85 0.781
18:03 1020 30.12 849 25.07 19.4 66.9 24 -1.3 29.7 19.81 0.78
18:04 1020 30.12 849 25.07 19.4 66.9 24 -1.3 29.6 19.77 0.778
18:05 1020 30.12 849 25.07 19.4 66.8 25 -1.3 29.7 19.76 0.778
18:06 1020 30.12 849 25.07 19.4 66.9 23 -1.9 28.5 19.71 0.776
18:07 1020 30.12 849 25.07 19.3 66.8 24 -1.8 28.8 19.72 0.776
18:08 1020 30.12 849 25.07 19.3 66.8 24 -1.5 29.2 19.67 0.774
18:09 1020 30.12 849 25.07 19.3 66.8 24 -1.4 29.4 19.68 0.775
18:10 1019 30.09 849 25.07 19.3 66.8 23 -2.1 28.3 19.65 0.774
18:11 1020 30.12 849 25.07 19.3 66.7 25 -1.2 29.8 19.65 0.774
18:12 1019 30.09 849 25.07 19.3 66.7 24 -1.7 29 19.65 0.774
18:13 1019 30.09 849 25.07 19.2 66.6 23 -2.1 28.2 19.61 0.772
18:14 1019 30.09 849 25.07 19.2 66.6 24 -1.9 28.7 19.56 0.77
18:15 1019 30.09 849 25.07 19.2 66.6 24 -1.5 29.3 19.55 0.77
18:16 1019 30.09 849 25.07 19.2 66.5 24 -1.7 28.9 19.51 0.768
18:17 1019 30.09 849 25.07 19.2 66.5 24 -1.5 29.3 19.51 0.768
18:18 1019 30.09 849 25.07 19.2 66.5 24 -1.6 29.2 19.51 0.768
18:19 1019 30.09 849 25.07 19.1 66.4 25 -1.2 29.8 19.49 0.767
18:20 1019 30.09 849 25.07 19.1 66.4 25 -1.1 30.1 19.46 0.766
18:21 1019 30.09 849 25.07 19.1 66.4 25 -1.3 29.6 19.46 0.766
18:22 1019 30.09 849 25.07 19.1 66.5 25 -1.1 30 19.49 0.767
18:23 1019 30.09 849 25.07 19.1 66.5 24 -2 28.4 19.47 0.767
18:24 1019 30.09 849 25.07 19.1 66.4 25 -1.1 29.9 19.46 0.766
18:25 1019 30.09 849 25.07 19.1 66.4 25 -1.4 29.4 19.42 0.765
18:26 1019 30.09 849 25.07 19.1 66.3 25 -1.2 29.9 19.38 0.763
18:27 1019 30.09 848 25.04 19 66.2 23 -2.2 28 19.34 0.761
18:28 1019 30.09 848 25.04 19 66.2 24 -1.9 28.5 19.35 0.762
18:29 1019 30.09 848 25.04 19 66.2 24 -1.6 29.1 19.28 0.759
18:30 1019 30.09 848 25.04 18.9 66.1 25 -1.6 29.1 19.23 0.757
18:31 1019 30.09 848 25.04 18.9 66 25 -1.4 29.5 19.22 0.757
18:32 1019 30.09 848 25.04 18.9 65.9 25 -1.5 29.3 19.19 0.756
18:33 1019 30.09 848 25.04 18.9 65.9 26 -0.9 30.4 19.16 0.754
18:34 1019 30.09 848 25.04 18.8 65.8 26 -1.1 30 19.11 0.752
18:35 1019 30.09 848 25.04 18.7 65.7 26 -1.2 29.8 19.1 0.752
18:36 1019 30.09 848 25.04 18.7 65.7 25 -1.3 29.7 19.03 0.749
18:37 1019 30.09 848 25.04 18.7 65.7 25 -1.8 28.8 19 0.748
18:38 1019 30.09 848 25.04 18.7 65.6 25 -1.4 29.5 18.99 0.748
18:39 1019 30.09 848 25.04 18.6 65.6 25 -1.4 29.5 18.94 0.746
18:40 1019 30.09 848 25.04 18.6 65.6 25 -1.7 29 18.97 0.747
18:41 1019 30.09 848 25.04 18.7 65.6 25 -1.6 29.1 18.97 0.747
18:42 1019 30.09 848 25.04 18.6 65.5 26 -1 30.2 18.94 0.746
18:43 1019 30.09 848 25.04 18.6 65.4 25 -1.5 29.3 18.86 0.743
18:44 1019 30.09 848 25.04 18.5 65.4 25 -1.9 28.5 18.82 0.741
18:45 1019 30.09 848 25.04 18.5 65.3 25 -1.8 28.8 18.84 0.742
18:46 1019 30.09 848 25.04 18.5 65.3 25 -1.8 28.8 18.83 0.741
18:47 1019 30.09 848 25.04 18.5 65.2 25 -1.7 28.9 18.78 0.739
18:48 1019 30.09 848 25.04 18.4 65.1 25 -1.7 28.9 18.72 0.737
18:49 1019 30.09 848 25.04 18.4 65.1 25 -2 28.4 18.69 0.736
18:50 1019 30.09 848 25.04 18.4 65.1 26 -1.5 29.4 18.71 0.737
18:51 1019 30.09 848 25.04 18.4 65 26 -1.6 29.1 18.66 0.735
18:52 1019 30.09 848 25.04 18.3 65 25 -1.7 28.9 18.67 0.735
18:53 1019 30.09 848 25.04 18.3 65 26 -1.6 29.2 18.66 0.735
18:54 1019 30.09 848 25.04 18.3 65 26 -1.6 29.1 18.64 0.734
18:55 1019 30.09 848 25.04 18.3 64.9 26 -1.3 29.7 18.58 0.731
18:56 1019 30.09 848 25.04 18.2 64.7 27 -1.1 30 18.49 0.728
18:57 1019 30.09 848 25.04 18.1 64.6 27 -1.1 30 18.43 0.726
18:58 1019 30.09 848 25.04 18.1 64.5 27 -1.1 30.1 18.41 0.725
18:59 1019 30.09 848 25.04 18 64.4 27 -1.3 29.6 18.34 0.722
19:00 1019 30.09 848 25.04 18 64.4 27 -1 30.3 18.36 0.723
19:01 1019 30.09 848 25.04 18 64.4 27 -1 30.2 18.31 0.721
19:02 1019 30.09 848 25.04 18 64.3 28 -0.9 30.4 18.25 0.719
19:03 1019 30.09 848 25.04 17.9 64.1 28 -0.8 30.5 18.16 0.715
19:04 1019 30.09 848 25.04 17.8 64.1 28 -0.8 30.5 18.12 0.713
19:05 1019 30.09 848 25.04 17.8 64 28 -0.6 30.9 18.09 0.712
19:06 1019 30.09 848 25.04 17.7 63.9 28 -0.9 30.4 17.99 0.708
19:07 1019 30.09 848 25.04 17.7 63.8 28 -0.8 30.5 17.99 0.708
19:08 1019 30.09 848 25.04 17.6 63.7 28 -0.9 30.3 17.93 0.706
19:09 1019 30.09 848 25.04 17.6 63.6 28 -0.8 30.5 17.86 0.703
19:10 1019 30.09 848 25.04 17.5 63.6 29 -0.7 30.8 17.81 0.701
19:11 1019 30.09 848 25.04 17.4 63.4 28 -1 30.3 17.76 0.699
19:12 1019 30.09 848 25.04 17.5 63.4 28 -1.1 29.9 17.78 0.7
19:13 1019 30.09 848 25.04 17.5 63.5 28 -0.9 30.4 17.87 0.704
19:14 1019 30.09 848 25.04 17.4 63.4 29 -0.8 30.6 17.77 0.7
19:15 1019 30.09 848 25.04 17.4 63.4 28 -1.1 30 17.74 0.698
19:16 1019 30.09 848 25.04 17.4 63.3 28 -1.1 30 17.77 0.7
19:17 1019 30.09 848 25.04 17.5 63.4 28 -1 30.2 17.77 0.7
19:18 1019 30.09 848 25.04 17.4 63.3 28 -1 30.2 17.68 0.696
19:19 1019 30.09 848 25.04 17.3 63.1 29 -1 30.3 17.64 0.694
19:20 1019 30.09 848 25.04 17.3 63.1 29 -1 30.2 17.62 0.694
19:21 1019 30.09 848 25.04 17.2 63 29 -0.9 30.4 17.53 0.69
19:22 1019 30.09 848 25.04 17.2 62.9 29 -0.9 30.4 17.46 0.687
19:23 1019 30.09 848 25.04 17.1 62.8 29 -1.1 30 17.45 0.687
19:24 1019 30.09 848 25.04 17.2 62.9 29 -0.9 30.3 17.53 0.69
19:25 1019 30.09 848 25.04 17.2 62.9 29 -1 30.2 17.49 0.689
19:26 1019 30.09 848 25.04 17.1 62.8 29 -1.1 30 17.49 0.689
19:27 1019 30.09 848 25.04 17.1 62.9 29 -1 30.3 17.45 0.687
19:28 1019 30.09 848 25.04 17.1 62.7 29 -1 30.3 17.43 0.686
19:29 1019 30.09 848 25.04 17 62.6 29 -0.8 30.6 17.34 0.683
19:30 1019 30.09 848 25.04 17 62.5 29 -0.9 30.3 17.3 0.681
19:31 1019 30.09 848 25.04 17 62.6 29 -0.8 30.5 17.34 0.683
19:32 1019 30.09 848 25.04 16.9 62.5 29 -0.9 30.3 17.28 0.68
19:33 1019 30.09 848 25.04 17 62.5 29 -0.9 30.5 17.34 0.683
19:34 1019 30.09 848 25.04 16.9 62.5 30 -0.7 30.8 17.22 0.678
19:35 1019 30.09 848 25.04 16.8 62.3 30 -0.8 30.6 17.14 0.675
19:36 1019 30.09 848 25.04 16.8 62.3 30 -0.7 30.7 17.17 0.676
19:37 1019 30.09 848 25.04 16.8 62.2 30 -0.8 30.5 17.08 0.672
19:38 1019 30.09 848 25.04 16.7 62 31 -0.6 30.9 17.04 0.671
19:39 1019 30.09 848 25.04 16.6 61.9 31 -0.6 30.8 16.95 0.667
19:40 1019 30.09 848 25.04 16.5 61.7 31 -0.7 30.8 16.84 0.663
19:41 1019 30.09 848 25.04 16.4 61.6 31 -0.6 30.9 16.78 0.661
19:42 1019 30.09 848 25.04 16.3 61.4 31 -0.7 30.8 16.67 0.656
19:43 1019 30.09 848 25.04 16.2 61.2 31 -0.6 30.8 16.55 0.652
19:44 1019 30.09 848 25.04 16.2 61.1 32 -0.6 30.9 16.53 0.651
19:45 1019 30.09 848 25.04 16.1 61 32 -0.7 30.8 16.45 0.648
19:46 1019 30.09 848 25.04 16.1 60.9 32 -0.6 30.9 16.41 0.646
19:47 1019 30.09 848 25.04 16 60.8 32 -0.6 30.9 16.41 0.646
19:48 1019 30.09 848 25.04 16 60.7 32 -0.6 30.9 16.31 0.642
19:49 1019 30.09 848 25.04 15.9 60.7 31 -0.9 30.4 16.27 0.641
19:50 1019 30.09 848 25.04 16 60.8 32 -0.7 30.8 16.39 0.645
19:51 1019 30.09 848 25.04 16 60.8 32 -0.7 30.8 16.32 0.643
19:52 1019 30.09 848 25.04 15.9 60.7 32 -0.5 31.2 16.3 0.642
19:53 1019 30.09 848 25.04 15.8 60.4 32 -0.6 30.9 16.14 0.635
19:54 1019 30.09 848 25.04 15.8 60.4 32 -0.7 30.7 16.19 0.637
19:55 1019 30.09 848 25.04 15.8 60.5 32 -0.7 30.7 16.21 0.638
19:56 1019 30.09 848 25.04 15.8 60.5 32 -0.7 30.8 16.21 0.638
19:57 1019 30.09 848 25.04 15.9 60.6 32 -0.8 30.6 16.27 0.641
19:58 1019 30.09 848 25.04 15.9 60.7 32 -0.7 30.8 16.27 0.641
19:59 1019 30.09 848 25.04 15.9 60.7 32 -0.7 30.8 16.29 0.641
20:00 1019 30.09 848 25.04 15.9 60.6 32 -0.5 31.1 16.24 0.639
20:01 1019 30.09 848 25.04 15.8 60.4 33 -0.6 31 16.12 0.635
20:02 1019 30.09 848 25.04 15.7 60.3 33 -0.5 31.1 16.07 0.633
20:03 1019 30.09 848 25.04 15.7 60.2 33 -0.6 31 15.99 0.63
20:04 1019 30.09 848 25.04 15.6 60 33 -0.6 30.9 15.92 0.627
20:05 1019 30.09 848 25.04 15.6 60.1 32 -0.7 30.7 15.94 0.628
20:06 1019 30.09 848 25.04 15.7 60.3 33 -0.5 31 16.07 0.633
20:07 1019 30.09 848 25.04 15.8 60.4 32 -0.6 30.8 16.14 0.635
20:08 1019 30.09 848 25.04 15.8 60.5 33 -0.5 31.2 16.16 0.636
20:09 1019 30.09 848 25.04 15.7 60.3 32 -0.6 30.9 16.09 0.633
20:10 1019 30.09 848 25.04 15.7 60.2 33 -0.6 31 16.03 0.631
20:11 1019 30.09 848 25.04 15.7 60.2 33 -0.6 31 16.05 0.632
20:12 1019 30.09 848 25.04 15.7 60.2 33 -0.7 30.8 16.02 0.631
20:13 1019 30.09 848 25.04 15.6 60.2 33 -0.5 31.1 16.03 0.631
20:14 1019 30.09 848 25.04 15.6 60 33 -0.5 31.1 15.91 0.626
20:15 1019 30.09 848 25.04 15.5 59.9 33 -0.6 31 15.88 0.625
20:16 1019 30.09 848 25.04 15.5 59.9 33 -0.5 31 15.83 0.623
20:17 1019 30.09 848 25.04 15.5 59.9 33 -0.5 31.1 15.81 0.622
20:18 1019 30.09 848 25.04 15.5 59.8 33 -0.6 31 15.83 0.623
20:19 1019 30.09 848 25.04 15.5 59.9 33 -0.6 30.9 15.87 0.625
20:20 1019 30.09 848 25.04 15.6 60 33 -0.7 30.7 15.94 0.628
20:21 1019 30.09 848 25.04 15.6 60.1 33 -0.5 31.1 15.95 0.628
20:22 1019 30.09 848 25.04 15.5 59.9 33 -0.5 31.1 15.89 0.626
20:23 1019 30.09 848 25.04 15.5 59.8 33 -0.5 31.1 15.81 0.622
20:24 1019 30.09 848 25.04 15.4 59.7 34 -0.4 31.3 15.74 0.62
20:25 1019 30.09 848 25.04 15.3 59.6 33 -0.7 30.8 15.67 0.617
20:26 1019 30.09 848 25.04 15.3 59.6 34 -0.5 31.1 15.68 0.617
20:27 1019 30.09 848 25.04 15.2 59.4 34 -0.4 31.2 15.59 0.614
20:28 1019 30.09 848 25.04 15.2 59.4 34 -0.6 30.9 15.56 0.613
20:29 1019 30.09 848 25.04 15.3 59.5 33 -0.6 30.9 15.61 0.615
20:30 1019 30.09 848 25.04 15.3 59.5 34 -0.6 31 15.62 0.615
20:31 1019 30.09 848 25.04 15.2 59.4 34 -0.3 31.4 15.55 0.612
20:32 1019 30.09 848 25.04 15.1 59.2 34 -0.4 31.3 15.43 0.607
20:33 1019 30.09 848 25.04 15.1 59.1 35 -0.4 31.3 15.44 0.608
20:34 1019 30.09 848 25.04 15 59.1 34 -0.6 30.9 15.39 0.606
20:35 1019 30.09 848 25.04 15.1 59.1 34 -0.4 31.2 15.4 0.606
20:36 1019 30.09 848 25.04 15 59.1 34 -0.4 31.3 15.36 0.605
20:37 1019 30.09 848 25.04 15 59.1 35 -0.4 31.3 15.39 0.606
20:38 1019 30.09 848 25.04 15 59.1 34 -0.6 31 15.41 0.607
20:39 1019 30.09 848 25.04 15.1 59.2 34 -0.4 31.3 15.45 0.608
20:40 1019 30.09 848 25.04 15 59.1 35 -0.3 31.4 15.39 0.606
20:41 1019 30.09 848 25.04 15 59 35 -0.3 31.4 15.34 0.604
20:42 1019 30.09 848 25.04 15 59 35 -0.3 31.4 15.33 0.604
20:43 1019 30.09 848 25.04 15 59 35 -0.4 31.2 15.41 0.607
20:44 1019 30.09 848 25.04 15.1 59.1 35 -0.3 31.5 15.39 0.606
20:45 1019 30.09 848 25.04 15 59.1 35 -0.3 31.4 15.39 0.606
20:46 1019 30.09 848 25.04 15 59 35 -0.3 31.5 15.36 0.605
20:47 1019 30.09 848 25.04 15 59 35 -0.3 31.5 15.41 0.607
20:48 1019 30.09 848 25.04 15 58.9 35 -0.3 31.5 15.29 0.602
20:49 1019 30.09 848 25.04 14.9 58.7 35 -0.3 31.5 15.19 0.598
20:50 1019 30.09 848 25.04 14.9 58.7 35 -0.4 31.3 15.22 0.599
20:51 1019 30.09 848 25.04 14.9 58.9 35 -0.5 31.2 15.29 0.602
20:52 1019 30.09 848 25.04 15 58.9 35 -0.3 31.4 15.32 0.603
20:53 1019 30.09 848 25.04 14.9 58.8 35 -0.3 31.5 15.23 0.6
20:54 1019 30.09 848 25.04 14.8 58.6 36 -0.2 31.6 15.15 0.596
20:55 1019 30.09 848 25.04 14.8 58.6 35 -0.3 31.5 15.13 0.596
20:56 1019 30.09 848 25.04 14.8 58.6 36 -0.2 31.6 15.14 0.596
20:57 1019 30.09 848 25.04 14.7 58.5 36 -0.2 31.6 15.09 0.594
20:58 1019 30.09 848 25.04 14.7 58.5 35 -0.3 31.4 15.12 0.595
20:59 1019 30.09 848 25.04 14.8 58.6 36 -0.1 31.9 15.17 0.597
21:00 1019 30.09 848 25.04 14.7 58.5 36 -0.2 31.6 15.06 0.593
21:01 1019 30.09 848 25.04 14.7 58.5 36 -0.1 31.8 15.08 0.594
21:02 1019 30.09 848 25.04 14.7 58.5 36 -0.3 31.5 15.08 0.594
21:03 1019 30.09 848 25.04 14.7 58.5 36 -0.3 31.5 15.13 0.596
21:04 1019 30.09 848 25.04 14.7 58.5 35 -0.3 31.5 15.13 0.596
21:05 1019 30.09 848 25.04 14.8 58.6 36 -0.1 31.9 15.12 0.595
21:06 1019 30.09 848 25.04 14.7 58.5 35 -0.4 31.4 15.11 0.595
21:07 1019 30.09 848 25.04 14.8 58.7 36 0.1 32.1 15.13 0.596
21:08 1019 30.09 848 25.04 14.7 58.5 36 -0.1 31.9 15.04 0.592
21:09 1019 30.09 848 25.04 14.7 58.4 36 0 32.1 15.03 0.592
21:10 1019 30.09 848 25.04 14.6 58.3 37 -0 32 14.93 0.588
21:11 1019 30.09 848 25.04 14.5 58.1 37 0.1 32.1 14.85 0.585
21:12 1019 30.09 848 25.04 14.4 58 37 -0.1 31.9 14.82 0.583
21:13 1019 30.09 848 25.04 14.5 58.1 37 -0.1 31.8 14.88 0.586
21:14 1019 30.09 848 25.04 14.5 58.1 37 -0 32 14.91 0.587
21:15 1019 30.09 848 25.04 14.6 58.2 37 -0 31.9 14.91 0.587
21:16 1019 30.09 848 25.04 14.6 58.2 37 -0 31.9 14.86 0.585
21:17 1019 30.09 848 25.04 14.5 58.2 37 -0.1 31.9 14.94 0.588
21:18 1019 30.09 848 25.04 14.6 58.2 37 0.1 32.1 14.93 0.588
21:19 1019 30.09 848 25.04 14.5 58.1 37 0 32 14.91 0.587
21:20 1019 30.09 848 25.04 14.5 58.1 37 -0 31.9 14.88 0.586
21:21 1019 30.09 848 25.04 14.6 58.2 37 0.1 32.2 14.95 0.589
21:22 1019 30.09 848 25.04 14.5 58.1 37 0.3 32.5 14.88 0.586
21:23 1019 30.09 848 25.04 14.5 58.1 37 0.1 32.2 14.84 0.584
21:24 1019 30.09 848 25.04 14.5 58.1 37 0.1 32.2 14.91 0.587
21:25 1019 30.09 848 25.04 14.6 58.2 37 0.2 32.3 14.94 0.588
21:26 1019 30.09 848 25.04 14.5 58.1 38 0.3 32.5 14.85 0.585
21:27 1019 30.09 848 25.04 14.5 58 37 0.2 32.4 14.82 0.583
21:28 1019 30.09 848 25.04 14.5 58 37 0.2 32.4 14.84 0.584
21:29 1019 30.09 848 25.04 14.5 58.1 38 0.3 32.5 14.86 0.585
21:30 1019 30.09 848 25.04 14.5 58.1 37 0.3 32.5 14.89 0.586
21:31 1018 30.06 848 25.04 14.5 58 38 0.3 32.5 14.81 0.583
21:32 1019 30.09 848 25.04 14.4 57.9 38 0.3 32.6 14.76 0.581
21:33 1019 30.09 848 25.04 14.4 57.9 38 0.3 32.6 14.77 0.581
21:34 1018 30.06 848 25.04 14.4 57.9 38 0.2 32.4 14.79 0.582
21:35 1019 30.09 848 25.04 14.5 58 37 0.2 32.4 14.85 0.585
21:36 1019 30.09 848 25.04 14.5 58.1 38 0.4 32.7 14.83 0.584
21:37 1019 30.09 848 25.04 14.4 58 38 0.5 32.8 14.77 0.581
21:38 1019 30.09 848 25.04 14.4 57.9 38 0.4 32.7 14.7 0.579
21:39 1019 30.09 848 25.04 14.3 57.8 38 0.3 32.6 14.67 0.578
21:40 1019 30.09 848 25.04 14.3 57.7 38 0.3 32.6 14.68 0.578
21:41 1018 30.06 848 25.04 14.3 57.7 38 0.4 32.7 14.62 0.576
21:42 1018 30.06 848 25.04 14.3 57.7 38 0.3 32.5 14.63 0.576
21:43 1018 30.06 848 25.04 14.4 57.9 38 0.4 32.8 14.73 0.58
21:44 1018 30.06 848 25.04 14.4 57.9 38 0.4 32.8 14.71 0.579
21:45 1018 30.06 848 25.04 14.4 57.8 39 0.5 32.9 14.71 0.579
21:46 1018 30.06 848 25.04 14.3 57.8 38 0.4 32.8 14.73 0.58
21:47 1018 30.06 848 25.04 14.3 57.8 39 0.5 32.9 14.66 0.577
21:48 1018 30.06 848 25.04 14.3 57.7 39 0.6 33.1 14.62 0.576
21:49 1018 30.06 848 25.04 14.2 57.6 39 0.5 32.9 14.53 0.572
21:50 1018 30.06 848 25.04 14.2 57.6 39 0.5 32.8 14.62 0.576
21:51 1018 30.06 848 25.04 14.3 57.8 38 0.4 32.8 14.67 0.578
21:52 1018 30.06 848 25.04 14.4 57.9 38 0.5 32.9 14.69 0.578
21:53 1018 30.06 848 25.04 14.4 57.8 38 0.5 32.9 14.76 0.581
21:54 1018 30.06 848 25.04 14.5 58 38 0.6 33 14.81 0.583
21:55 1018 30.06 848 25.04 14.4 57.9 39 0.7 33.3 14.72 0.58
21:56 1018 30.06 848 25.04 14.4 57.8 39 0.7 33.3 14.67 0.578
21:57 1018 30.06 848 25.04 14.4 57.9 39 0.7 33.2 14.73 0.58
21:58 1018 30.06 848 25.04 14.4 57.9 39 0.8 33.4 14.69 0.578
21:59 1018 30.06 847 25.01 14.3 57.8 39 0.8 33.4 14.65 0.577
22:00 1018 30.06 848 25.04 14.3 57.7 40 0.9 33.5 14.58 0.574
22:01 1018 30.06 847 25.01 14.2 57.6 40 0.8 33.4 14.55 0.573
22:02 1018 30.06 847 25.01 14.1 57.5 41 1 33.9 14.51 0.571
22:03 1018 30.06 847 25.01 14.1 57.3 40 0.9 33.6 14.44 0.569
22:04 1018 30.06 847 25.01 14.1 57.4 40 0.9 33.6 14.46 0.569
22:05 1018 30.06 847 25.01 14.1 57.4 40 0.9 33.7 14.47 0.57
22:06 1018 30.06 847 25.01 14.1 57.3 41 1.1 34 14.4 0.567
22:07 1018 30.06 848 25.04 14 57.1 41 1.1 33.9 14.31 0.563
22:08 1018 30.06 848 25.04 14 57.1 41 1 33.9 14.34 0.565
22:09 1018 30.06 848 25.04 13.9 57.1 41 1.1 34 14.33 0.564
22:10 1018 30.06 848 25.04 13.9 57 42 1.1 34 14.22 0.56
22:11 1018 30.06 848 25.04 13.9 57 42 1.2 34.1 14.23 0.56
22:12 1018 30.06 848 25.04 13.9 57 42 1.3 34.3 14.21 0.559
22:13 1018 30.06 848 25.04 13.8 56.9 42 1.2 34.2 14.17 0.558
22:14 1018 30.06 847 25.01 13.8 56.8 42 1.2 34.2 14.16 0.557
22:15 1018 30.06 847 25.01 13.9 57 42 1.1 34.1 14.27 0.562
22:16 1018 30.06 848 25.04 13.9 57.1 42 1.2 34.2 14.29 0.563
22:17 1018 30.06 847 25.01 14 57.2 42 1.3 34.4 14.34 0.565
22:18 1018 30.06 848 25.04 13.9 57.1 42 1.4 34.5 14.26 0.561
22:19 1018 30.06 848 25.04 13.8 56.8 43 1.4 34.6 14.15 0.557
22:20 1018 30.06 848 25.04 13.7 56.6 43 1.5 34.6 14.03 0.552
22:21 1018 30.06 847 25.01 13.6 56.4 43 1.4 34.5 13.94 0.549
22:22 1018 30.06 847 25.01 13.6 56.5 43 1.4 34.6 13.98 0.55
22:23 1018 30.06 848 25.04 13.6 56.5 44 1.5 34.7 13.99 0.551
22:24 1018 30.06 848 25.04 13.6 56.4 44 1.5 34.7 13.89 0.547
22:25 1018 30.06 848 25.04 13.5 56.4 44 1.5 34.7 13.93 0.548
22:26 1018 30.06 848 25.04 13.5 56.3 44 1.6 34.9 13.89 0.547
22:27 1018 30.06 848 25.04 13.5 56.3 44 1.6 34.8 13.89 0.547
22:28 1018 30.06 848 25.04 13.5 56.4 44 1.6 34.9 13.87 0.546
22:29 1018 30.06 848 25.04 13.6 56.4 44 1.7 35 13.89 0.547
22:30 1018 30.06 847 25.01 13.6 56.4 44 1.7 35 13.89 0.547
22:31 1018 30.06 847 25.01 13.5 56.3 44 1.6 34.9 13.87 0.546
22:32 1018 30.06 847 25.01 13.5 56.3 44 1.7 35 13.85 0.545
22:33 1018 30.06 847 25.01 13.5 56.3 44 1.7 35.1 13.87 0.546
22:34 1018 30.06 847 25.01 13.5 56.3 45 1.8 35.2 13.83 0.544
22:35 1018 30.06 847 25.01 13.4 56.2 45 1.7 35.1 13.81 0.544
22:36 1018 30.06 847 25.01 13.5 56.2 45 1.9 35.3 13.83 0.544
22:37 1018 30.06 847 25.01 13.4 56.2 45 1.9 35.3 13.76 0.542
22:38 1018 30.06 847 25.01 13.4 56.1 45 1.8 35.2 13.78 0.543
22:39 1018 30.06 847 25.01 13.4 56.2 45 1.8 35.3 13.81 0.544
22:40 1018 30.06 847 25.01 13.4 56.1 45 1.9 35.4 13.73 0.541
22:41 1018 30.06 847 25.01 13.4 56 46 1.9 35.4 13.72 0.54
22:42 1018 30.06 847 25.01 13.3 56 46 1.9 35.5 13.7 0.539
22:43 1018 30.06 847 25.01 13.3 56 45 1.9 35.4 13.72 0.54
22:44 1018 30.06 847 25.01 13.3 56 46 2 35.6 13.7 0.539
22:45 1018 30.06 847 25.01 13.3 55.9 46 2 35.6 13.62 0.536
22:46 1018 30.06 847 25.01 13.3 55.9 46 1.9 35.5 13.62 0.536
22:47 1018 30.06 847 25.01 13.3 55.9 46 2 35.6 13.63 0.537
22:48 1018 30.06 847 25.01 13.2 55.8 46 1.9 35.5 13.6 0.535
22:49 1018 30.06 847 25.01 13.3 55.9 46 2 35.5 13.66 0.538
22:50 1018 30.06 847 25.01 13.3 55.9 46 2 35.7 13.67 0.538
22:51 1018 30.06 847 25.01 13.3 55.9 46 2.1 35.8 13.62 0.536
22:52 1018 30.06 847 25.01 13.2 55.8 47 2.2 35.9 13.55 0.533
22:53 1018 30.06 847 25.01 13.2 55.7 47 2 35.7 13.51 0.532
22:54 1018 30.06 847 25.01 13.2 55.7 47 2.1 35.7 13.54 0.533
22:55 1018 30.06 847 25.01 13.2 55.8 46 2.1 35.7 13.59 0.535
22:56 1018 30.06 847 25.01 13.2 55.8 47 2.2 35.9 13.61 0.536
22:57 1018 30.06 847 25.01 13.2 55.7 47 2.3 36.1 13.53 0.533
22:58 1018 30.06 847 25.01 13.1 55.5 48 2.3 36.1 13.41 0.528
22:59 1018 30.06 847 25.01 12.9 55.3 48 2.3 36.1 13.28 0.523
23:00 1018 30.06 847 25.01 12.9 55.3 48 2.2 36 13.3 0.524
23:01 1018 30.06 847 25.01 12.9 55.3 48 2.3 36.1 13.31 0.524
23:02 1018 30.06 847 25.01 12.9 55.2 48 2.2 36 13.27 0.522
23:03 1018 30.06 847 25.01 12.9 55.2 48 2.3 36.1 13.23 0.521
23:04 1018 30.06 847 25.01 12.9 55.2 48 2.2 36 13.25 0.522
23:05 1018 30.06 847 25.01 12.9 55.2 48 2.3 36.1 13.27 0.522
23:06 1018 30.06 847 25.01 12.8 55.1 48 2.3 36.1 13.17 0.519
23:07 1018 30.06 847 25.01 12.8 55.1 48 2.3 36.1 13.17 0.519
23:08 1018 30.06 847 25.01 12.8 55 49 2.3 36.2 13.14 0.517
23:09 1018 30.06 847 25.01 12.8 55 49 2.3 36.2 13.14 0.517
23:10 1018 30.06 847 25.01 12.7 54.9 49 2.4 36.3 13.08 0.515
23:11 1018 30.06 847 25.01 12.7 54.8 49 2.4 36.3 12.99 0.511
23:12 1018 30.06 847 25.01 12.6 54.6 50 2.4 36.3 12.91 0.508
23:13 1018 30.06 847 25.01 12.5 54.4 50 2.4 36.3 12.82 0.505
23:14 1018 30.06 847 25.01 12.4 54.2 50 2.4 36.3 12.72 0.501
23:15 1018 30.06 847 25.01 12.4 54.2 50 2.4 36.3 12.67 0.499
23:16 1018 30.06 847 25.01 12.4 54.2 50 2.4 36.2 12.73 0.501
23:17 1018 30.06 847 25.01 12.4 54.2 50 2.4 36.3 12.76 0.502
23:18 1018 30.06 847 25.01 12.4 54.3 50 2.4 36.2 12.74 0.502
23:19 1018 30.06 847 25.01 12.4 54.4 50 2.4 36.3 12.79 0.504
23:20 1018 30.06 847 25.01 12.4 54.4 50 2.4 36.2 12.77 0.503
23:21 1018 30.06 847 25.01 12.4 54.4 50 2.3 36.2 12.8 0.504
23:22 1018 30.06 847 25.01 12.5 54.4 50 2.3 36.2 12.85 0.506
23:23 1018 30.06 847 25.01 12.5 54.6 50 2.3 36.2 12.89 0.507
23:24 1018 30.06 847 25.01 12.5 54.5 49 2.3 36.1 12.88 0.507
23:25 1018 30.06 847 25.01 12.6 54.6 49 2.3 36.2 12.91 0.508
23:26 1018 30.06 847 25.01 12.6 54.6 49 2.3 36.1 12.94 0.509
23:27 1018 30.06 847 25.01 12.6 54.6 49 2.3 36.2 12.94 0.509
23:28 1018 30.06 847 25.01 12.6 54.6 50 2.4 36.3 12.93 0.509
23:29 1018 30.06 847 25.01 12.6 54.6 49 2.3 36.2 12.93 0.509
23:30 1018 30.06 847 25.01 12.6 54.6 50 2.5 36.4 12.9 0.508
23:31 1018 30.06 847 25.01 12.5 54.5 50 2.4 36.2 12.84 0.506
23:32 1018 30.06 847 25.01 12.4 54.3 50 2.4 36.4 12.78 0.503
23:33 1018 30.06 847 25.01 12.3 54.2 50 2.4 36.2 12.7 0.5
23:34 1018 30.06 847 25.01 12.3 54.1 50 2.3 36.2 12.67 0.499
23:35 1018 30.06 847 25.01 12.3 54.1 50 2.3 36.1 12.65 0.498
23:36 1018 30.06 847 25.01 12.3 54.1 50 2.4 36.2 12.62 0.497
23:37 1018 30.06 847 25.01 12.3 54.1 51 2.5 36.4 12.61 0.496
23:38 1018 30.06 847 25.01 12.2 53.9 51 2.4 36.4 12.53 0.493
23:39 1018 30.06 847 25.01 12.1 53.8 51 2.4 36.2 12.48 0.491
23:40 1018 30.06 847 25.01 12.1 53.9 51 2.4 36.3 12.53 0.493
23:41 1018 30.06 847 25.01 12.1 53.8 51 2.4 36.3 12.48 0.491
23:42 1018 30.06 847 25.01 12.2 53.9 51 2.3 36.2 12.51 0.493
23:43 1018 30.06 847 25.01 12.3 54.1 50 2.3 36.1 12.65 0.498
23:44 1018 30.06 847 25.01 12.3 54.2 50 2.4 36.3 12.63 0.497
23:45 1018 30.06 847 25.01 12.3 54.2 50 2.4 36.2 12.68 0.499
23:46 1018 30.06 847 25.01 12.4 54.2 50 2.4 36.3 12.69 0.5
23:47 1018 30.06 847 25.01 12.3 54.1 51 2.4 36.3 12.68 0.499
23:48 1018 30.06 847 25.01 12.2 54 51 2.4 36.4 12.59 0.496
23:49 1018 30.06 847 25.01 12.2 54 51 2.3 36.2 12.61 0.496
23:50 1018 30.06 847 25.01 12.3 54.1 51 2.4 36.3 12.62 0.497
23:51 1018 30.06 847 25.01 12.3 54.1 51 2.4 36.3 12.63 0.497
23:52 1018 30.06 847 25.01 12.3 54.1 51 2.4 36.4 12.63 0.497
23:53 1018 30.06 847 25.01 12.2 53.9 51 2.4 36.3 12.57 0.495
23:54 1018 30.06 847 25.01 12.2 53.9 51 2.4 36.4 12.58 0.495
23:55 1018 30.06 847 25.01 12.2 53.9 51 2.5 36.5 12.53 0.493
23:56 1018 30.06 847 25.01 12.1 53.9 51 2.3 36.2 12.47 0.491
23:57 1018 30.06 847 25.01 12.2 54 51 2.4 36.2 12.59 0.496
23:58 1018 30.06 847 25.01 12.3 54.1 51 2.4 36.3 12.64 0.498
23:59 1018 30.06 847 25.01 12.3 54.1 51 2.4 36.3 12.66 0.498
24:00 1018 30.06 847 25.01 12.3 54.1 51 2.4 36.3 12.6 0.496